<?xml version="1.0" encoding="UTF-8" standalone="no" ?>
<gpx xmlns="http://www.topografix.com/GPX/1/1" xmlns:xsi="http://www.w3.org/2001/XMLSchema-instance" xsi:schemaLocation="http://www.topografix.com/GPX/1/1 http://www.topografix.com/GPX/1/1/gpx.xsd" version="1.1" creator="VisuGPX - https://www.visugpx.com">
  <metadata>
    <name>Etape 2 Saint-Amand-Montrond &gt; Saint-Florent-sur-Cher</name>
    <desc><![CDATA[Etape 2 qui va de Saint-Amand-Montrond à Saint-Florent-sur-Cher
Parcours du 14 juin]]></desc>
  </metadata>
  <trk>
    <name><![CDATA[20180610195922-k1GEa]]></name>
    <trkseg>
      <trkpt lat="46.94218" lon="2.27239">
        <ele>138</ele>
        <time>2018-04-17T07:47:13Z</time>
      </trkpt>
      <trkpt lat="46.94221" lon="2.27235">
        <ele>138</ele>
        <time>2018-04-17T07:47:18Z</time>
      </trkpt>
      <trkpt lat="46.94224" lon="2.27234">
        <ele>138</ele>
        <time>2018-04-17T07:47:27Z</time>
      </trkpt>
      <trkpt lat="46.94226" lon="2.27228">
        <ele>138</ele>
        <time>2018-04-17T07:47:30Z</time>
      </trkpt>
      <trkpt lat="46.94227" lon="2.27225">
        <ele>138</ele>
        <time>2018-04-17T07:47:31Z</time>
      </trkpt>
      <trkpt lat="46.94222" lon="2.27199">
        <ele>137</ele>
        <time>2018-04-17T07:47:37Z</time>
      </trkpt>
      <trkpt lat="46.94215" lon="2.27167">
        <ele>137</ele>
        <time>2018-04-17T07:47:42Z</time>
      </trkpt>
      <trkpt lat="46.94213" lon="2.27161">
        <ele>136</ele>
        <time>2018-04-17T07:47:43Z</time>
      </trkpt>
      <trkpt lat="46.94207" lon="2.27139">
        <ele>136</ele>
        <time>2018-04-17T07:47:46Z</time>
      </trkpt>
      <trkpt lat="46.94199" lon="2.27108">
        <ele>136</ele>
        <time>2018-04-17T07:47:50Z</time>
      </trkpt>
      <trkpt lat="46.94199" lon="2.27101">
        <ele>136</ele>
        <time>2018-04-17T07:47:51Z</time>
      </trkpt>
      <trkpt lat="46.94198" lon="2.27081">
        <ele>135</ele>
        <time>2018-04-17T07:47:54Z</time>
      </trkpt>
      <trkpt lat="46.94199" lon="2.27073">
        <ele>135</ele>
        <time>2018-04-17T07:47:55Z</time>
      </trkpt>
      <trkpt lat="46.942" lon="2.27066">
        <ele>135</ele>
        <time>2018-04-17T07:47:56Z</time>
      </trkpt>
      <trkpt lat="46.94206" lon="2.27047">
        <ele>135</ele>
        <time>2018-04-17T07:47:59Z</time>
      </trkpt>
      <trkpt lat="46.94208" lon="2.2704">
        <ele>135</ele>
        <time>2018-04-17T07:48:00Z</time>
      </trkpt>
      <trkpt lat="46.94222" lon="2.26998">
        <ele>134</ele>
        <time>2018-04-17T07:48:06Z</time>
      </trkpt>
      <trkpt lat="46.94229" lon="2.26979">
        <ele>134</ele>
        <time>2018-04-17T07:48:09Z</time>
      </trkpt>
      <trkpt lat="46.94241" lon="2.26953">
        <ele>133</ele>
        <time>2018-04-17T07:48:13Z</time>
      </trkpt>
      <trkpt lat="46.94243" lon="2.26945">
        <ele>133</ele>
        <time>2018-04-17T07:48:14Z</time>
      </trkpt>
      <trkpt lat="46.94246" lon="2.26937">
        <ele>133</ele>
        <time>2018-04-17T07:48:15Z</time>
      </trkpt>
      <trkpt lat="46.94248" lon="2.26929">
        <ele>133</ele>
        <time>2018-04-17T07:48:16Z</time>
      </trkpt>
      <trkpt lat="46.94249" lon="2.2692">
        <ele>133</ele>
        <time>2018-04-17T07:48:17Z</time>
      </trkpt>
      <trkpt lat="46.94246" lon="2.26893">
        <ele>132</ele>
        <time>2018-04-17T07:48:20Z</time>
      </trkpt>
      <trkpt lat="46.94244" lon="2.26885">
        <ele>132</ele>
        <time>2018-04-17T07:48:21Z</time>
      </trkpt>
      <trkpt lat="46.94241" lon="2.26877">
        <ele>132</ele>
        <time>2018-04-17T07:48:22Z</time>
      </trkpt>
      <trkpt lat="46.9424" lon="2.2686">
        <ele>131</ele>
        <time>2018-04-17T07:48:24Z</time>
      </trkpt>
      <trkpt lat="46.94242" lon="2.26852">
        <ele>131</ele>
        <time>2018-04-17T07:48:25Z</time>
      </trkpt>
      <trkpt lat="46.94249" lon="2.26839">
        <ele>131</ele>
        <time>2018-04-17T07:48:27Z</time>
      </trkpt>
      <trkpt lat="46.9426" lon="2.26815">
        <ele>130</ele>
        <time>2018-04-17T07:48:31Z</time>
      </trkpt>
      <trkpt lat="46.94268" lon="2.26797">
        <ele>130</ele>
        <time>2018-04-17T07:48:34Z</time>
      </trkpt>
      <trkpt lat="46.9428" lon="2.26788">
        <ele>130</ele>
        <time>2018-04-17T07:48:37Z</time>
      </trkpt>
      <trkpt lat="46.94284" lon="2.26788">
        <ele>130</ele>
        <time>2018-04-17T07:48:38Z</time>
      </trkpt>
      <trkpt lat="46.94289" lon="2.26788">
        <ele>129</ele>
        <time>2018-04-17T07:48:39Z</time>
      </trkpt>
      <trkpt lat="46.94301" lon="2.26793">
        <ele>129</ele>
        <time>2018-04-17T07:48:42Z</time>
      </trkpt>
      <trkpt lat="46.94314" lon="2.26799">
        <ele>129</ele>
        <time>2018-04-17T07:48:44Z</time>
      </trkpt>
      <trkpt lat="46.9432" lon="2.26804">
        <ele>130</ele>
        <time>2018-04-17T07:48:45Z</time>
      </trkpt>
      <trkpt lat="46.94333" lon="2.26811">
        <ele>130</ele>
        <time>2018-04-17T07:48:47Z</time>
      </trkpt>
      <trkpt lat="46.9434" lon="2.26814">
        <ele>129</ele>
        <time>2018-04-17T07:48:48Z</time>
      </trkpt>
      <trkpt lat="46.94361" lon="2.26822">
        <ele>129</ele>
        <time>2018-04-17T07:48:51Z</time>
      </trkpt>
      <trkpt lat="46.94374" lon="2.26827">
        <ele>129</ele>
        <time>2018-04-17T07:48:53Z</time>
      </trkpt>
      <trkpt lat="46.9441" lon="2.26836">
        <ele>128</ele>
        <time>2018-04-17T07:48:59Z</time>
      </trkpt>
      <trkpt lat="46.9442" lon="2.26838">
        <ele>128</ele>
        <time>2018-04-17T07:49:01Z</time>
      </trkpt>
      <trkpt lat="46.94442" lon="2.26844">
        <ele>127</ele>
        <time>2018-04-17T07:49:06Z</time>
      </trkpt>
      <trkpt lat="46.94456" lon="2.26857">
        <ele>127</ele>
        <time>2018-04-17T07:49:10Z</time>
      </trkpt>
      <trkpt lat="46.94472" lon="2.26885">
        <ele>127</ele>
        <time>2018-04-17T07:49:15Z</time>
      </trkpt>
      <trkpt lat="46.94478" lon="2.26898">
        <ele>127</ele>
        <time>2018-04-17T07:49:17Z</time>
      </trkpt>
      <trkpt lat="46.94493" lon="2.2693">
        <ele>127</ele>
        <time>2018-04-17T07:49:22Z</time>
      </trkpt>
      <trkpt lat="46.94501" lon="2.26947">
        <ele>127</ele>
        <time>2018-04-17T07:49:25Z</time>
      </trkpt>
      <trkpt lat="46.94523" lon="2.2699">
        <ele>127</ele>
        <time>2018-04-17T07:49:33Z</time>
      </trkpt>
      <trkpt lat="46.94544" lon="2.27016">
        <ele>128</ele>
        <time>2018-04-17T07:49:39Z</time>
      </trkpt>
      <trkpt lat="46.94547" lon="2.27021">
        <ele>128</ele>
        <time>2018-04-17T07:49:40Z</time>
      </trkpt>
      <trkpt lat="46.94571" lon="2.27047">
        <ele>129</ele>
        <time>2018-04-17T07:49:46Z</time>
      </trkpt>
      <trkpt lat="46.94591" lon="2.27082">
        <ele>128</ele>
        <time>2018-04-17T07:49:52Z</time>
      </trkpt>
      <trkpt lat="46.94601" lon="2.271">
        <ele>129</ele>
        <time>2018-04-17T07:49:55Z</time>
      </trkpt>
      <trkpt lat="46.94613" lon="2.27114">
        <ele>129</ele>
        <time>2018-04-17T07:49:58Z</time>
      </trkpt>
      <trkpt lat="46.94627" lon="2.27125">
        <ele>129</ele>
        <time>2018-04-17T07:50:01Z</time>
      </trkpt>
      <trkpt lat="46.94642" lon="2.27132">
        <ele>129</ele>
        <time>2018-04-17T07:50:04Z</time>
      </trkpt>
      <trkpt lat="46.94688" lon="2.27144">
        <ele>128</ele>
        <time>2018-04-17T07:50:13Z</time>
      </trkpt>
      <trkpt lat="46.94728" lon="2.27154">
        <ele>128</ele>
        <time>2018-04-17T07:50:21Z</time>
      </trkpt>
      <trkpt lat="46.94768" lon="2.27164">
        <ele>130</ele>
        <time>2018-04-17T07:50:29Z</time>
      </trkpt>
      <trkpt lat="46.94778" lon="2.27166">
        <ele>130</ele>
        <time>2018-04-17T07:50:31Z</time>
      </trkpt>
      <trkpt lat="46.94798" lon="2.2717">
        <ele>134</ele>
        <time>2018-04-17T07:50:35Z</time>
      </trkpt>
      <trkpt lat="46.94835" lon="2.27178">
        <ele>134</ele>
        <time>2018-04-17T07:50:42Z</time>
      </trkpt>
      <trkpt lat="46.94871" lon="2.27182">
        <ele>135</ele>
        <time>2018-04-17T07:50:49Z</time>
      </trkpt>
      <trkpt lat="46.94881" lon="2.27183">
        <ele>135</ele>
        <time>2018-04-17T07:50:51Z</time>
      </trkpt>
      <trkpt lat="46.94913" lon="2.27186">
        <ele>134</ele>
        <time>2018-04-17T07:50:57Z</time>
      </trkpt>
      <trkpt lat="46.94943" lon="2.27188">
        <ele>134</ele>
        <time>2018-04-17T07:51:03Z</time>
      </trkpt>
      <trkpt lat="46.94958" lon="2.27188">
        <ele>134</ele>
        <time>2018-04-17T07:51:06Z</time>
      </trkpt>
      <trkpt lat="46.94993" lon="2.27188">
        <ele>134</ele>
        <time>2018-04-17T07:51:13Z</time>
      </trkpt>
      <trkpt lat="46.95032" lon="2.27186">
        <ele>134</ele>
        <time>2018-04-17T07:51:20Z</time>
      </trkpt>
      <trkpt lat="46.9507" lon="2.27181">
        <ele>132</ele>
        <time>2018-04-17T07:51:27Z</time>
      </trkpt>
      <trkpt lat="46.95081" lon="2.27178">
        <ele>131</ele>
        <time>2018-04-17T07:51:29Z</time>
      </trkpt>
      <trkpt lat="46.95131" lon="2.27163">
        <ele>129</ele>
        <time>2018-04-17T07:51:38Z</time>
      </trkpt>
      <trkpt lat="46.95172" lon="2.27142">
        <ele>133</ele>
        <time>2018-04-17T07:51:46Z</time>
      </trkpt>
      <trkpt lat="46.95207" lon="2.27121">
        <ele>133</ele>
        <time>2018-04-17T07:51:53Z</time>
      </trkpt>
      <trkpt lat="46.95247" lon="2.27089">
        <ele>133</ele>
        <time>2018-04-17T07:52:01Z</time>
      </trkpt>
      <trkpt lat="46.95287" lon="2.27046">
        <ele>136</ele>
        <time>2018-04-17T07:52:10Z</time>
      </trkpt>
      <trkpt lat="46.95309" lon="2.2702">
        <ele>135</ele>
        <time>2018-04-17T07:52:16Z</time>
      </trkpt>
      <trkpt lat="46.95331" lon="2.26985">
        <ele>133</ele>
        <time>2018-04-17T07:52:23Z</time>
      </trkpt>
      <trkpt lat="46.9536" lon="2.26939">
        <ele>136</ele>
        <time>2018-04-17T07:52:31Z</time>
      </trkpt>
      <trkpt lat="46.95379" lon="2.26906">
        <ele>133</ele>
        <time>2018-04-17T07:52:37Z</time>
      </trkpt>
      <trkpt lat="46.95382" lon="2.269">
        <ele>133</ele>
        <time>2018-04-17T07:52:38Z</time>
      </trkpt>
      <trkpt lat="46.95405" lon="2.26854">
        <ele>132</ele>
        <time>2018-04-17T07:52:45Z</time>
      </trkpt>
      <trkpt lat="46.95426" lon="2.2681">
        <ele>134</ele>
        <time>2018-04-17T07:52:51Z</time>
      </trkpt>
      <trkpt lat="46.95457" lon="2.26748">
        <ele>131</ele>
        <time>2018-04-17T07:53:00Z</time>
      </trkpt>
      <trkpt lat="46.95477" lon="2.2671">
        <ele>131</ele>
        <time>2018-04-17T07:53:06Z</time>
      </trkpt>
      <trkpt lat="46.95508" lon="2.26657">
        <ele>132</ele>
        <time>2018-04-17T07:53:15Z</time>
      </trkpt>
      <trkpt lat="46.9553" lon="2.26623">
        <ele>133</ele>
        <time>2018-04-17T07:53:21Z</time>
      </trkpt>
      <trkpt lat="46.95566" lon="2.26574">
        <ele>131</ele>
        <time>2018-04-17T07:53:30Z</time>
      </trkpt>
      <trkpt lat="46.95573" lon="2.26564">
        <ele>131</ele>
        <time>2018-04-17T07:53:32Z</time>
      </trkpt>
      <trkpt lat="46.95581" lon="2.26551">
        <ele>130</ele>
        <time>2018-04-17T07:53:35Z</time>
      </trkpt>
      <trkpt lat="46.95583" lon="2.26548">
        <ele>130</ele>
        <time>2018-04-17T07:53:36Z</time>
      </trkpt>
      <trkpt lat="46.95587" lon="2.26542">
        <ele>134</ele>
        <time>2018-04-17T07:53:38Z</time>
      </trkpt>
      <trkpt lat="46.9559" lon="2.26536">
        <ele>134</ele>
        <time>2018-04-17T07:53:41Z</time>
      </trkpt>
      <trkpt lat="46.9559" lon="2.26537">
        <ele>134</ele>
        <time>2018-04-17T07:53:42Z</time>
      </trkpt>
      <trkpt lat="46.95595" lon="2.26531">
        <ele>134</ele>
        <time>2018-04-17T07:53:46Z</time>
      </trkpt>
      <trkpt lat="46.95605" lon="2.26519">
        <ele>134</ele>
        <time>2018-04-17T07:53:49Z</time>
      </trkpt>
      <trkpt lat="46.95613" lon="2.2651">
        <ele>134</ele>
        <time>2018-04-17T07:53:51Z</time>
      </trkpt>
      <trkpt lat="46.95625" lon="2.26496">
        <ele>132</ele>
        <time>2018-04-17T07:53:54Z</time>
      </trkpt>
      <trkpt lat="46.9564" lon="2.26476">
        <ele>132</ele>
        <time>2018-04-17T07:53:58Z</time>
      </trkpt>
      <trkpt lat="46.95644" lon="2.2647">
        <ele>132</ele>
        <time>2018-04-17T07:53:59Z</time>
      </trkpt>
      <trkpt lat="46.95665" lon="2.26437">
        <ele>131</ele>
        <time>2018-04-17T07:54:05Z</time>
      </trkpt>
      <trkpt lat="46.95694" lon="2.26395">
        <ele>131</ele>
        <time>2018-04-17T07:54:13Z</time>
      </trkpt>
      <trkpt lat="46.95704" lon="2.26382">
        <ele>131</ele>
        <time>2018-04-17T07:54:16Z</time>
      </trkpt>
      <trkpt lat="46.95715" lon="2.26368">
        <ele>131</ele>
        <time>2018-04-17T07:54:19Z</time>
      </trkpt>
      <trkpt lat="46.95734" lon="2.26339">
        <ele>130</ele>
        <time>2018-04-17T07:54:26Z</time>
      </trkpt>
      <trkpt lat="46.9574" lon="2.26333">
        <ele>129</ele>
        <time>2018-04-17T07:54:28Z</time>
      </trkpt>
      <trkpt lat="46.95745" lon="2.26326">
        <ele>129</ele>
        <time>2018-04-17T07:54:31Z</time>
      </trkpt>
      <trkpt lat="46.95747" lon="2.26324">
        <ele>129</ele>
        <time>2018-04-17T07:54:32Z</time>
      </trkpt>
      <trkpt lat="46.95761" lon="2.26311">
        <ele>131</ele>
        <time>2018-04-17T07:54:39Z</time>
      </trkpt>
      <trkpt lat="46.95774" lon="2.26292">
        <ele>131</ele>
        <time>2018-04-17T07:54:47Z</time>
      </trkpt>
      <trkpt lat="46.95777" lon="2.26288">
        <ele>131</ele>
        <time>2018-04-17T07:54:52Z</time>
      </trkpt>
      <trkpt lat="46.95777" lon="2.26288">
        <ele>131</ele>
        <time>2018-04-17T07:55:00Z</time>
      </trkpt>
      <trkpt lat="46.95777" lon="2.26288">
        <ele>131</ele>
        <time>2018-04-17T07:55:12Z</time>
      </trkpt>
      <trkpt lat="46.95777" lon="2.26288">
        <ele>131</ele>
        <time>2018-04-17T07:55:29Z</time>
      </trkpt>
      <trkpt lat="46.95778" lon="2.26287">
        <ele>131</ele>
        <time>2018-04-17T07:55:37Z</time>
      </trkpt>
      <trkpt lat="46.95778" lon="2.26287">
        <ele>131</ele>
        <time>2018-04-17T07:55:48Z</time>
      </trkpt>
      <trkpt lat="46.95778" lon="2.26287">
        <ele>131</ele>
        <time>2018-04-17T07:55:59Z</time>
      </trkpt>
      <trkpt lat="46.95778" lon="2.26287">
        <ele>131</ele>
        <time>2018-04-17T07:56:00Z</time>
      </trkpt>
      <trkpt lat="46.95778" lon="2.26287">
        <ele>131</ele>
        <time>2018-04-17T07:56:11Z</time>
      </trkpt>
      <trkpt lat="46.95778" lon="2.26287">
        <ele>131</ele>
        <time>2018-04-17T07:56:22Z</time>
      </trkpt>
      <trkpt lat="46.95779" lon="2.26284">
        <ele>131</ele>
        <time>2018-04-17T07:56:29Z</time>
      </trkpt>
      <trkpt lat="46.95791" lon="2.26269">
        <ele>131</ele>
        <time>2018-04-17T07:56:34Z</time>
      </trkpt>
      <trkpt lat="46.95808" lon="2.26248">
        <ele>129</ele>
        <time>2018-04-17T07:56:40Z</time>
      </trkpt>
      <trkpt lat="46.95829" lon="2.26222">
        <ele>129</ele>
        <time>2018-04-17T07:56:47Z</time>
      </trkpt>
      <trkpt lat="46.95844" lon="2.26207">
        <ele>132</ele>
        <time>2018-04-17T07:56:52Z</time>
      </trkpt>
      <trkpt lat="46.95862" lon="2.26185">
        <ele>132</ele>
        <time>2018-04-17T07:56:57Z</time>
      </trkpt>
      <trkpt lat="46.95866" lon="2.26181">
        <ele>132</ele>
        <time>2018-04-17T07:56:58Z</time>
      </trkpt>
      <trkpt lat="46.95892" lon="2.26153">
        <ele>130</ele>
        <time>2018-04-17T07:57:04Z</time>
      </trkpt>
      <trkpt lat="46.95916" lon="2.26131">
        <ele>130</ele>
        <time>2018-04-17T07:57:10Z</time>
      </trkpt>
      <trkpt lat="46.95936" lon="2.26113">
        <ele>132</ele>
        <time>2018-04-17T07:57:15Z</time>
      </trkpt>
      <trkpt lat="46.95941" lon="2.2611">
        <ele>133</ele>
        <time>2018-04-17T07:57:16Z</time>
      </trkpt>
      <trkpt lat="46.95969" lon="2.26087">
        <ele>133</ele>
        <time>2018-04-17T07:57:22Z</time>
      </trkpt>
      <trkpt lat="46.95997" lon="2.26065">
        <ele>131</ele>
        <time>2018-04-17T07:57:28Z</time>
      </trkpt>
      <trkpt lat="46.96025" lon="2.26045">
        <ele>131</ele>
        <time>2018-04-17T07:57:34Z</time>
      </trkpt>
      <trkpt lat="46.9606" lon="2.26018">
        <ele>131</ele>
        <time>2018-04-17T07:57:42Z</time>
      </trkpt>
      <trkpt lat="46.96085" lon="2.25999">
        <ele>129</ele>
        <time>2018-04-17T07:57:48Z</time>
      </trkpt>
      <trkpt lat="46.9609" lon="2.25996">
        <ele>129</ele>
        <time>2018-04-17T07:57:49Z</time>
      </trkpt>
      <trkpt lat="46.9612" lon="2.25978">
        <ele>130</ele>
        <time>2018-04-17T07:57:55Z</time>
      </trkpt>
      <trkpt lat="46.96138" lon="2.25964">
        <ele>130</ele>
        <time>2018-04-17T07:58:00Z</time>
      </trkpt>
      <trkpt lat="46.96166" lon="2.25944">
        <ele>129</ele>
        <time>2018-04-17T07:58:07Z</time>
      </trkpt>
      <trkpt lat="46.96169" lon="2.25942">
        <ele>131</ele>
        <time>2018-04-17T07:58:08Z</time>
      </trkpt>
      <trkpt lat="46.9617" lon="2.25942">
        <ele>131</ele>
        <time>2018-04-17T07:58:09Z</time>
      </trkpt>
      <trkpt lat="46.9617" lon="2.25942">
        <ele>131</ele>
        <time>2018-04-17T07:58:10Z</time>
      </trkpt>
      <trkpt lat="46.96171" lon="2.25942">
        <ele>131</ele>
        <time>2018-04-17T07:58:20Z</time>
      </trkpt>
      <trkpt lat="46.96173" lon="2.25941">
        <ele>131</ele>
        <time>2018-04-17T07:58:29Z</time>
      </trkpt>
      <trkpt lat="46.96175" lon="2.25939">
        <ele>131</ele>
        <time>2018-04-17T07:58:30Z</time>
      </trkpt>
      <trkpt lat="46.96195" lon="2.25928">
        <ele>131</ele>
        <time>2018-04-17T07:58:36Z</time>
      </trkpt>
      <trkpt lat="46.96213" lon="2.25917">
        <ele>132</ele>
        <time>2018-04-17T07:58:41Z</time>
      </trkpt>
      <trkpt lat="46.96221" lon="2.25913">
        <ele>127</ele>
        <time>2018-04-17T07:58:43Z</time>
      </trkpt>
      <trkpt lat="46.96229" lon="2.25909">
        <ele>128</ele>
        <time>2018-04-17T07:58:45Z</time>
      </trkpt>
      <trkpt lat="46.96237" lon="2.25904">
        <ele>128</ele>
        <time>2018-04-17T07:58:47Z</time>
      </trkpt>
      <trkpt lat="46.96264" lon="2.25889">
        <ele>129</ele>
        <time>2018-04-17T07:58:53Z</time>
      </trkpt>
      <trkpt lat="46.96295" lon="2.25877">
        <ele>129</ele>
        <time>2018-04-17T07:59:00Z</time>
      </trkpt>
      <trkpt lat="46.96324" lon="2.25866">
        <ele>129</ele>
        <time>2018-04-17T07:59:07Z</time>
      </trkpt>
      <trkpt lat="46.96355" lon="2.25855">
        <ele>132</ele>
        <time>2018-04-17T07:59:14Z</time>
      </trkpt>
      <trkpt lat="46.96388" lon="2.25846">
        <ele>134</ele>
        <time>2018-04-17T07:59:22Z</time>
      </trkpt>
      <trkpt lat="46.96394" lon="2.25845">
        <ele>134</ele>
        <time>2018-04-17T07:59:24Z</time>
      </trkpt>
      <trkpt lat="46.964" lon="2.25842">
        <ele>134</ele>
        <time>2018-04-17T07:59:26Z</time>
      </trkpt>
      <trkpt lat="46.9642" lon="2.25835">
        <ele>135</ele>
        <time>2018-04-17T07:59:32Z</time>
      </trkpt>
      <trkpt lat="46.96448" lon="2.2583">
        <ele>132</ele>
        <time>2018-04-17T07:59:39Z</time>
      </trkpt>
      <trkpt lat="46.96484" lon="2.2582">
        <ele>133</ele>
        <time>2018-04-17T07:59:47Z</time>
      </trkpt>
      <trkpt lat="46.96514" lon="2.25816">
        <ele>132</ele>
        <time>2018-04-17T07:59:53Z</time>
      </trkpt>
      <trkpt lat="46.96545" lon="2.25809">
        <ele>130</ele>
        <time>2018-04-17T07:59:59Z</time>
      </trkpt>
      <trkpt lat="46.96552" lon="2.25808">
        <ele>130</ele>
        <time>2018-04-17T08:00:01Z</time>
      </trkpt>
      <trkpt lat="46.96564" lon="2.25805">
        <ele>130</ele>
        <time>2018-04-17T08:00:04Z</time>
      </trkpt>
      <trkpt lat="46.96579" lon="2.25803">
        <ele>130</ele>
        <time>2018-04-17T08:00:09Z</time>
      </trkpt>
      <trkpt lat="46.96589" lon="2.2581">
        <ele>130</ele>
        <time>2018-04-17T08:00:14Z</time>
      </trkpt>
      <trkpt lat="46.96591" lon="2.25818">
        <ele>130</ele>
        <time>2018-04-17T08:00:17Z</time>
      </trkpt>
      <trkpt lat="46.96592" lon="2.25821">
        <ele>131</ele>
        <time>2018-04-17T08:00:18Z</time>
      </trkpt>
      <trkpt lat="46.96592" lon="2.25828">
        <ele>131</ele>
        <time>2018-04-17T08:00:20Z</time>
      </trkpt>
      <trkpt lat="46.96595" lon="2.25843">
        <ele>133</ele>
        <time>2018-04-17T08:00:25Z</time>
      </trkpt>
      <trkpt lat="46.96595" lon="2.2586">
        <ele>133</ele>
        <time>2018-04-17T08:00:31Z</time>
      </trkpt>
      <trkpt lat="46.96596" lon="2.25869">
        <ele>133</ele>
        <time>2018-04-17T08:00:35Z</time>
      </trkpt>
      <trkpt lat="46.96597" lon="2.25873">
        <ele>134</ele>
        <time>2018-04-17T08:00:37Z</time>
      </trkpt>
      <trkpt lat="46.96602" lon="2.25876">
        <ele>134</ele>
        <time>2018-04-17T08:00:42Z</time>
      </trkpt>
      <trkpt lat="46.9661" lon="2.25881">
        <ele>134</ele>
        <time>2018-04-17T08:00:50Z</time>
      </trkpt>
      <trkpt lat="46.96618" lon="2.25886">
        <ele>134</ele>
        <time>2018-04-17T08:00:57Z</time>
      </trkpt>
      <trkpt lat="46.96626" lon="2.25887">
        <ele>133</ele>
        <time>2018-04-17T08:01:03Z</time>
      </trkpt>
      <trkpt lat="46.96638" lon="2.25888">
        <ele>133</ele>
        <time>2018-04-17T08:01:10Z</time>
      </trkpt>
      <trkpt lat="46.96648" lon="2.25887">
        <ele>133</ele>
        <time>2018-04-17T08:01:15Z</time>
      </trkpt>
      <trkpt lat="46.96649" lon="2.25886">
        <ele>133</ele>
        <time>2018-04-17T08:01:16Z</time>
      </trkpt>
      <trkpt lat="46.9666" lon="2.25883">
        <ele>133</ele>
        <time>2018-04-17T08:01:22Z</time>
      </trkpt>
      <trkpt lat="46.96672" lon="2.25882">
        <ele>134</ele>
        <time>2018-04-17T08:01:29Z</time>
      </trkpt>
      <trkpt lat="46.96674" lon="2.25881">
        <ele>134</ele>
        <time>2018-04-17T08:01:30Z</time>
      </trkpt>
      <trkpt lat="46.96684" lon="2.25878">
        <ele>134</ele>
        <time>2018-04-17T08:01:36Z</time>
      </trkpt>
      <trkpt lat="46.96695" lon="2.25874">
        <ele>134</ele>
        <time>2018-04-17T08:01:43Z</time>
      </trkpt>
      <trkpt lat="46.96706" lon="2.25878">
        <ele>134</ele>
        <time>2018-04-17T08:01:49Z</time>
      </trkpt>
      <trkpt lat="46.96713" lon="2.25884">
        <ele>135</ele>
        <time>2018-04-17T08:01:53Z</time>
      </trkpt>
      <trkpt lat="46.96716" lon="2.25887">
        <ele>135</ele>
        <time>2018-04-17T08:01:55Z</time>
      </trkpt>
      <trkpt lat="46.9672" lon="2.25894">
        <ele>135</ele>
        <time>2018-04-17T08:01:59Z</time>
      </trkpt>
      <trkpt lat="46.96724" lon="2.25897">
        <ele>135</ele>
        <time>2018-04-17T08:02:01Z</time>
      </trkpt>
      <trkpt lat="46.9673" lon="2.25908">
        <ele>136</ele>
        <time>2018-04-17T08:02:06Z</time>
      </trkpt>
      <trkpt lat="46.96733" lon="2.25914">
        <ele>136</ele>
        <time>2018-04-17T08:02:09Z</time>
      </trkpt>
      <trkpt lat="46.96735" lon="2.25918">
        <ele>138</ele>
        <time>2018-04-17T08:02:11Z</time>
      </trkpt>
      <trkpt lat="46.96743" lon="2.25932">
        <ele>139</ele>
        <time>2018-04-17T08:02:17Z</time>
      </trkpt>
      <trkpt lat="46.96751" lon="2.25952">
        <ele>142</ele>
        <time>2018-04-17T08:02:25Z</time>
      </trkpt>
      <trkpt lat="46.96752" lon="2.25955">
        <ele>143</ele>
        <time>2018-04-17T08:02:26Z</time>
      </trkpt>
      <trkpt lat="46.96754" lon="2.25965">
        <ele>143</ele>
        <time>2018-04-17T08:02:30Z</time>
      </trkpt>
      <trkpt lat="46.96761" lon="2.25976">
        <ele>143</ele>
        <time>2018-04-17T08:02:35Z</time>
      </trkpt>
      <trkpt lat="46.96762" lon="2.25979">
        <ele>143</ele>
        <time>2018-04-17T08:02:37Z</time>
      </trkpt>
      <trkpt lat="46.96766" lon="2.25985">
        <ele>144</ele>
        <time>2018-04-17T08:02:40Z</time>
      </trkpt>
      <trkpt lat="46.96775" lon="2.26">
        <ele>144</ele>
        <time>2018-04-17T08:02:45Z</time>
      </trkpt>
      <trkpt lat="46.96777" lon="2.26006">
        <ele>145</ele>
        <time>2018-04-17T08:02:47Z</time>
      </trkpt>
      <trkpt lat="46.96779" lon="2.26012">
        <ele>145</ele>
        <time>2018-04-17T08:02:50Z</time>
      </trkpt>
      <trkpt lat="46.9678" lon="2.26016">
        <ele>145</ele>
        <time>2018-04-17T08:02:52Z</time>
      </trkpt>
      <trkpt lat="46.96783" lon="2.26026">
        <ele>145</ele>
        <time>2018-04-17T08:02:56Z</time>
      </trkpt>
      <trkpt lat="46.96788" lon="2.26035">
        <ele>146</ele>
        <time>2018-04-17T08:02:59Z</time>
      </trkpt>
      <trkpt lat="46.96794" lon="2.26047">
        <ele>146</ele>
        <time>2018-04-17T08:03:03Z</time>
      </trkpt>
      <trkpt lat="46.96804" lon="2.26067">
        <ele>146</ele>
        <time>2018-04-17T08:03:10Z</time>
      </trkpt>
      <trkpt lat="46.96807" lon="2.26076">
        <ele>146</ele>
        <time>2018-04-17T08:03:13Z</time>
      </trkpt>
      <trkpt lat="46.96808" lon="2.26084">
        <ele>146</ele>
        <time>2018-04-17T08:03:16Z</time>
      </trkpt>
      <trkpt lat="46.96808" lon="2.26086">
        <ele>146</ele>
        <time>2018-04-17T08:03:17Z</time>
      </trkpt>
      <trkpt lat="46.96809" lon="2.26099">
        <ele>146</ele>
        <time>2018-04-17T08:03:22Z</time>
      </trkpt>
      <trkpt lat="46.96807" lon="2.26113">
        <ele>146</ele>
        <time>2018-04-17T08:03:27Z</time>
      </trkpt>
      <trkpt lat="46.96807" lon="2.26122">
        <ele>146</ele>
        <time>2018-04-17T08:03:30Z</time>
      </trkpt>
      <trkpt lat="46.96808" lon="2.26134">
        <ele>146</ele>
        <time>2018-04-17T08:03:34Z</time>
      </trkpt>
      <trkpt lat="46.96809" lon="2.26146">
        <ele>145</ele>
        <time>2018-04-17T08:03:37Z</time>
      </trkpt>
      <trkpt lat="46.96808" lon="2.26158">
        <ele>145</ele>
        <time>2018-04-17T08:03:40Z</time>
      </trkpt>
      <trkpt lat="46.96808" lon="2.26172">
        <ele>145</ele>
        <time>2018-04-17T08:03:44Z</time>
      </trkpt>
      <trkpt lat="46.96809" lon="2.26179">
        <ele>145</ele>
        <time>2018-04-17T08:03:46Z</time>
      </trkpt>
      <trkpt lat="46.96806" lon="2.262">
        <ele>145</ele>
        <time>2018-04-17T08:03:52Z</time>
      </trkpt>
      <trkpt lat="46.96804" lon="2.26221">
        <ele>145</ele>
        <time>2018-04-17T08:03:58Z</time>
      </trkpt>
      <trkpt lat="46.96803" lon="2.26247">
        <ele>145</ele>
        <time>2018-04-17T08:04:05Z</time>
      </trkpt>
      <trkpt lat="46.96802" lon="2.2625">
        <ele>145</ele>
        <time>2018-04-17T08:04:06Z</time>
      </trkpt>
      <trkpt lat="46.96803" lon="2.26268">
        <ele>145</ele>
        <time>2018-04-17T08:04:11Z</time>
      </trkpt>
      <trkpt lat="46.96803" lon="2.26275">
        <ele>145</ele>
        <time>2018-04-17T08:04:13Z</time>
      </trkpt>
      <trkpt lat="46.96804" lon="2.26297">
        <ele>145</ele>
        <time>2018-04-17T08:04:19Z</time>
      </trkpt>
      <trkpt lat="46.96806" lon="2.2632">
        <ele>145</ele>
        <time>2018-04-17T08:04:25Z</time>
      </trkpt>
      <trkpt lat="46.96812" lon="2.26352">
        <ele>145</ele>
        <time>2018-04-17T08:04:33Z</time>
      </trkpt>
      <trkpt lat="46.96817" lon="2.26375">
        <ele>146</ele>
        <time>2018-04-17T08:04:39Z</time>
      </trkpt>
      <trkpt lat="46.96819" lon="2.26391">
        <ele>146</ele>
        <time>2018-04-17T08:04:44Z</time>
      </trkpt>
      <trkpt lat="46.96827" lon="2.26422">
        <ele>145</ele>
        <time>2018-04-17T08:04:52Z</time>
      </trkpt>
      <trkpt lat="46.96832" lon="2.26446">
        <ele>145</ele>
        <time>2018-04-17T08:04:58Z</time>
      </trkpt>
      <trkpt lat="46.96835" lon="2.26466">
        <ele>143</ele>
        <time>2018-04-17T08:05:04Z</time>
      </trkpt>
      <trkpt lat="46.9684" lon="2.26489">
        <ele>143</ele>
        <time>2018-04-17T08:05:11Z</time>
      </trkpt>
      <trkpt lat="46.96846" lon="2.26497">
        <ele>143</ele>
        <time>2018-04-17T08:05:16Z</time>
      </trkpt>
      <trkpt lat="46.96847" lon="2.26497">
        <ele>143</ele>
        <time>2018-04-17T08:05:24Z</time>
      </trkpt>
      <trkpt lat="46.96855" lon="2.26508">
        <ele>141</ele>
        <time>2018-04-17T08:05:31Z</time>
      </trkpt>
      <trkpt lat="46.96855" lon="2.26509">
        <ele>141</ele>
        <time>2018-04-17T08:05:36Z</time>
      </trkpt>
      <trkpt lat="46.96855" lon="2.26509">
        <ele>141</ele>
        <time>2018-04-17T08:05:49Z</time>
      </trkpt>
      <trkpt lat="46.96855" lon="2.26509">
        <ele>141</ele>
        <time>2018-04-17T08:05:59Z</time>
      </trkpt>
      <trkpt lat="46.96855" lon="2.26509">
        <ele>141</ele>
        <time>2018-04-17T08:06:13Z</time>
      </trkpt>
      <trkpt lat="46.96855" lon="2.2651">
        <ele>141</ele>
        <time>2018-04-17T08:06:25Z</time>
      </trkpt>
      <trkpt lat="46.96855" lon="2.2651">
        <ele>141</ele>
        <time>2018-04-17T08:06:34Z</time>
      </trkpt>
      <trkpt lat="46.96855" lon="2.2651">
        <ele>141</ele>
        <time>2018-04-17T08:06:48Z</time>
      </trkpt>
      <trkpt lat="46.96855" lon="2.2651">
        <ele>141</ele>
        <time>2018-04-17T08:06:58Z</time>
      </trkpt>
      <trkpt lat="46.96856" lon="2.2651">
        <ele>141</ele>
        <time>2018-04-17T08:07:09Z</time>
      </trkpt>
      <trkpt lat="46.96857" lon="2.26513">
        <ele>141</ele>
        <time>2018-04-17T08:07:13Z</time>
      </trkpt>
      <trkpt lat="46.96859" lon="2.26515">
        <ele>140</ele>
        <time>2018-04-17T08:07:14Z</time>
      </trkpt>
      <trkpt lat="46.96873" lon="2.26531">
        <ele>140</ele>
        <time>2018-04-17T08:07:20Z</time>
      </trkpt>
      <trkpt lat="46.96885" lon="2.26549">
        <ele>139</ele>
        <time>2018-04-17T08:07:27Z</time>
      </trkpt>
      <trkpt lat="46.96899" lon="2.26566">
        <ele>139</ele>
        <time>2018-04-17T08:07:34Z</time>
      </trkpt>
      <trkpt lat="46.96912" lon="2.26583">
        <ele>137</ele>
        <time>2018-04-17T08:07:41Z</time>
      </trkpt>
      <trkpt lat="46.96929" lon="2.26606">
        <ele>138</ele>
        <time>2018-04-17T08:07:50Z</time>
      </trkpt>
      <trkpt lat="46.96945" lon="2.26629">
        <ele>139</ele>
        <time>2018-04-17T08:07:59Z</time>
      </trkpt>
      <trkpt lat="46.96961" lon="2.26653">
        <ele>139</ele>
        <time>2018-04-17T08:08:07Z</time>
      </trkpt>
      <trkpt lat="46.96971" lon="2.26671">
        <ele>140</ele>
        <time>2018-04-17T08:08:13Z</time>
      </trkpt>
      <trkpt lat="46.96973" lon="2.26674">
        <ele>140</ele>
        <time>2018-04-17T08:08:14Z</time>
      </trkpt>
      <trkpt lat="46.96986" lon="2.26698">
        <ele>140</ele>
        <time>2018-04-17T08:08:22Z</time>
      </trkpt>
      <trkpt lat="46.9699" lon="2.26704">
        <ele>140</ele>
        <time>2018-04-17T08:08:24Z</time>
      </trkpt>
      <trkpt lat="46.97005" lon="2.26732">
        <ele>140</ele>
        <time>2018-04-17T08:08:32Z</time>
      </trkpt>
      <trkpt lat="46.97021" lon="2.26764">
        <ele>139</ele>
        <time>2018-04-17T08:08:41Z</time>
      </trkpt>
      <trkpt lat="46.97037" lon="2.26799">
        <ele>139</ele>
        <time>2018-04-17T08:08:51Z</time>
      </trkpt>
      <trkpt lat="46.97053" lon="2.26836">
        <ele>140</ele>
        <time>2018-04-17T08:09:01Z</time>
      </trkpt>
      <trkpt lat="46.97068" lon="2.26875">
        <ele>140</ele>
        <time>2018-04-17T08:09:11Z</time>
      </trkpt>
      <trkpt lat="46.97081" lon="2.26911">
        <ele>140</ele>
        <time>2018-04-17T08:09:20Z</time>
      </trkpt>
      <trkpt lat="46.9709" lon="2.26945">
        <ele>141</ele>
        <time>2018-04-17T08:09:28Z</time>
      </trkpt>
      <trkpt lat="46.97098" lon="2.26985">
        <ele>141</ele>
        <time>2018-04-17T08:09:37Z</time>
      </trkpt>
      <trkpt lat="46.97104" lon="2.2701">
        <ele>140</ele>
        <time>2018-04-17T08:09:43Z</time>
      </trkpt>
      <trkpt lat="46.97107" lon="2.27023">
        <ele>140</ele>
        <time>2018-04-17T08:09:46Z</time>
      </trkpt>
      <trkpt lat="46.97116" lon="2.27055">
        <ele>140</ele>
        <time>2018-04-17T08:09:54Z</time>
      </trkpt>
      <trkpt lat="46.97127" lon="2.27084">
        <ele>140</ele>
        <time>2018-04-17T08:10:02Z</time>
      </trkpt>
      <trkpt lat="46.97129" lon="2.27087">
        <ele>140</ele>
        <time>2018-04-17T08:10:03Z</time>
      </trkpt>
      <trkpt lat="46.97137" lon="2.27104">
        <ele>140</ele>
        <time>2018-04-17T08:10:08Z</time>
      </trkpt>
      <trkpt lat="46.97146" lon="2.2712">
        <ele>140</ele>
        <time>2018-04-17T08:10:13Z</time>
      </trkpt>
      <trkpt lat="46.97153" lon="2.27132">
        <ele>140</ele>
        <time>2018-04-17T08:10:18Z</time>
      </trkpt>
      <trkpt lat="46.97161" lon="2.27149">
        <ele>141</ele>
        <time>2018-04-17T08:10:23Z</time>
      </trkpt>
      <trkpt lat="46.97175" lon="2.27171">
        <ele>143</ele>
        <time>2018-04-17T08:10:30Z</time>
      </trkpt>
      <trkpt lat="46.97177" lon="2.27174">
        <ele>143</ele>
        <time>2018-04-17T08:10:31Z</time>
      </trkpt>
      <trkpt lat="46.97191" lon="2.27196">
        <ele>144</ele>
        <time>2018-04-17T08:10:38Z</time>
      </trkpt>
      <trkpt lat="46.97201" lon="2.2721">
        <ele>144</ele>
        <time>2018-04-17T08:10:43Z</time>
      </trkpt>
      <trkpt lat="46.97216" lon="2.27235">
        <ele>145</ele>
        <time>2018-04-17T08:10:51Z</time>
      </trkpt>
      <trkpt lat="46.97226" lon="2.27251">
        <ele>146</ele>
        <time>2018-04-17T08:10:56Z</time>
      </trkpt>
      <trkpt lat="46.97235" lon="2.27263">
        <ele>146</ele>
        <time>2018-04-17T08:11:00Z</time>
      </trkpt>
      <trkpt lat="46.97239" lon="2.27269">
        <ele>146</ele>
        <time>2018-04-17T08:11:02Z</time>
      </trkpt>
      <trkpt lat="46.97256" lon="2.27293">
        <ele>147</ele>
        <time>2018-04-17T08:11:10Z</time>
      </trkpt>
      <trkpt lat="46.97267" lon="2.27308">
        <ele>147</ele>
        <time>2018-04-17T08:11:15Z</time>
      </trkpt>
      <trkpt lat="46.97278" lon="2.27323">
        <ele>147</ele>
        <time>2018-04-17T08:11:20Z</time>
      </trkpt>
      <trkpt lat="46.97292" lon="2.27341">
        <ele>148</ele>
        <time>2018-04-17T08:11:26Z</time>
      </trkpt>
      <trkpt lat="46.97296" lon="2.27346">
        <ele>148</ele>
        <time>2018-04-17T08:11:28Z</time>
      </trkpt>
      <trkpt lat="46.97313" lon="2.27367">
        <ele>149</ele>
        <time>2018-04-17T08:11:36Z</time>
      </trkpt>
      <trkpt lat="46.97318" lon="2.27372">
        <ele>149</ele>
        <time>2018-04-17T08:11:38Z</time>
      </trkpt>
      <trkpt lat="46.97335" lon="2.27395">
        <ele>150</ele>
        <time>2018-04-17T08:11:46Z</time>
      </trkpt>
      <trkpt lat="46.9734" lon="2.274">
        <ele>150</ele>
        <time>2018-04-17T08:11:48Z</time>
      </trkpt>
      <trkpt lat="46.97351" lon="2.27415">
        <ele>150</ele>
        <time>2018-04-17T08:11:53Z</time>
      </trkpt>
      <trkpt lat="46.97379" lon="2.27449">
        <ele>151</ele>
        <time>2018-04-17T08:12:04Z</time>
      </trkpt>
      <trkpt lat="46.97407" lon="2.27484">
        <ele>151</ele>
        <time>2018-04-17T08:12:15Z</time>
      </trkpt>
      <trkpt lat="46.97427" lon="2.2751">
        <ele>150</ele>
        <time>2018-04-17T08:12:23Z</time>
      </trkpt>
      <trkpt lat="46.97432" lon="2.27516">
        <ele>150</ele>
        <time>2018-04-17T08:12:25Z</time>
      </trkpt>
      <trkpt lat="46.97452" lon="2.27542">
        <ele>151</ele>
        <time>2018-04-17T08:12:33Z</time>
      </trkpt>
      <trkpt lat="46.97477" lon="2.27573">
        <ele>151</ele>
        <time>2018-04-17T08:12:42Z</time>
      </trkpt>
      <trkpt lat="46.97501" lon="2.27601">
        <ele>151</ele>
        <time>2018-04-17T08:12:50Z</time>
      </trkpt>
      <trkpt lat="46.97524" lon="2.27628">
        <ele>150</ele>
        <time>2018-04-17T08:12:58Z</time>
      </trkpt>
      <trkpt lat="46.97549" lon="2.27662">
        <ele>150</ele>
        <time>2018-04-17T08:13:07Z</time>
      </trkpt>
      <trkpt lat="46.97573" lon="2.27698">
        <ele>150</ele>
        <time>2018-04-17T08:13:17Z</time>
      </trkpt>
      <trkpt lat="46.97582" lon="2.27712">
        <ele>150</ele>
        <time>2018-04-17T08:13:23Z</time>
      </trkpt>
      <trkpt lat="46.97595" lon="2.27727">
        <ele>151</ele>
        <time>2018-04-17T08:13:28Z</time>
      </trkpt>
      <trkpt lat="46.97615" lon="2.27753">
        <ele>151</ele>
        <time>2018-04-17T08:13:35Z</time>
      </trkpt>
      <trkpt lat="46.97624" lon="2.27763">
        <ele>151</ele>
        <time>2018-04-17T08:13:38Z</time>
      </trkpt>
      <trkpt lat="46.9764" lon="2.27779">
        <ele>151</ele>
        <time>2018-04-17T08:13:43Z</time>
      </trkpt>
      <trkpt lat="46.97669" lon="2.27796">
        <ele>151</ele>
        <time>2018-04-17T08:13:51Z</time>
      </trkpt>
      <trkpt lat="46.97696" lon="2.27808">
        <ele>152</ele>
        <time>2018-04-17T08:13:58Z</time>
      </trkpt>
      <trkpt lat="46.9773" lon="2.27825">
        <ele>152</ele>
        <time>2018-04-17T08:14:07Z</time>
      </trkpt>
      <trkpt lat="46.97752" lon="2.27849">
        <ele>152</ele>
        <time>2018-04-17T08:14:14Z</time>
      </trkpt>
      <trkpt lat="46.97784" lon="2.27886">
        <ele>151</ele>
        <time>2018-04-17T08:14:24Z</time>
      </trkpt>
      <trkpt lat="46.97817" lon="2.27923">
        <ele>150</ele>
        <time>2018-04-17T08:14:34Z</time>
      </trkpt>
      <trkpt lat="46.97846" lon="2.27952">
        <ele>150</ele>
        <time>2018-04-17T08:14:43Z</time>
      </trkpt>
      <trkpt lat="46.97864" lon="2.27968">
        <ele>150</ele>
        <time>2018-04-17T08:14:50Z</time>
      </trkpt>
      <trkpt lat="46.97872" lon="2.27973">
        <ele>150</ele>
        <time>2018-04-17T08:14:56Z</time>
      </trkpt>
      <trkpt lat="46.97871" lon="2.27973">
        <ele>150</ele>
        <time>2018-04-17T08:15:02Z</time>
      </trkpt>
      <trkpt lat="46.97871" lon="2.27973">
        <ele>150</ele>
        <time>2018-04-17T08:15:13Z</time>
      </trkpt>
      <trkpt lat="46.97871" lon="2.27973">
        <ele>150</ele>
        <time>2018-04-17T08:15:24Z</time>
      </trkpt>
      <trkpt lat="46.97871" lon="2.27973">
        <ele>150</ele>
        <time>2018-04-17T08:15:33Z</time>
      </trkpt>
      <trkpt lat="46.97871" lon="2.27973">
        <ele>150</ele>
        <time>2018-04-17T08:15:44Z</time>
      </trkpt>
      <trkpt lat="46.97871" lon="2.27973">
        <ele>150</ele>
        <time>2018-04-17T08:15:55Z</time>
      </trkpt>
      <trkpt lat="46.97871" lon="2.27973">
        <ele>150</ele>
        <time>2018-04-17T08:16:01Z</time>
      </trkpt>
      <trkpt lat="46.97871" lon="2.27973">
        <ele>150</ele>
        <time>2018-04-17T08:16:12Z</time>
      </trkpt>
      <trkpt lat="46.97871" lon="2.27973">
        <ele>150</ele>
        <time>2018-04-17T08:16:23Z</time>
      </trkpt>
      <trkpt lat="46.97871" lon="2.27973">
        <ele>150</ele>
        <time>2018-04-17T08:16:33Z</time>
      </trkpt>
      <trkpt lat="46.97871" lon="2.27973">
        <ele>150</ele>
        <time>2018-04-17T08:16:36Z</time>
      </trkpt>
      <trkpt lat="46.97871" lon="2.27973">
        <ele>150</ele>
        <time>2018-04-17T08:16:47Z</time>
      </trkpt>
      <trkpt lat="46.97873" lon="2.27977">
        <ele>150</ele>
        <time>2018-04-17T08:16:51Z</time>
      </trkpt>
      <trkpt lat="46.97874" lon="2.27977">
        <ele>150</ele>
        <time>2018-04-17T08:16:52Z</time>
      </trkpt>
      <trkpt lat="46.97887" lon="2.27983">
        <ele>151</ele>
        <time>2018-04-17T08:16:59Z</time>
      </trkpt>
      <trkpt lat="46.97904" lon="2.27992">
        <ele>151</ele>
        <time>2018-04-17T08:17:05Z</time>
      </trkpt>
      <trkpt lat="46.97922" lon="2.28003">
        <ele>151</ele>
        <time>2018-04-17T08:17:11Z</time>
      </trkpt>
      <trkpt lat="46.97945" lon="2.28016">
        <ele>152</ele>
        <time>2018-04-17T08:17:19Z</time>
      </trkpt>
      <trkpt lat="46.97969" lon="2.2803">
        <ele>153</ele>
        <time>2018-04-17T08:17:27Z</time>
      </trkpt>
      <trkpt lat="46.97997" lon="2.28041">
        <ele>153</ele>
        <time>2018-04-17T08:17:36Z</time>
      </trkpt>
      <trkpt lat="46.98022" lon="2.28045">
        <ele>155</ele>
        <time>2018-04-17T08:17:44Z</time>
      </trkpt>
      <trkpt lat="46.98025" lon="2.28045">
        <ele>155</ele>
        <time>2018-04-17T08:17:45Z</time>
      </trkpt>
      <trkpt lat="46.98049" lon="2.28047">
        <ele>156</ele>
        <time>2018-04-17T08:17:52Z</time>
      </trkpt>
      <trkpt lat="46.98056" lon="2.28048">
        <ele>156</ele>
        <time>2018-04-17T08:17:54Z</time>
      </trkpt>
      <trkpt lat="46.98066" lon="2.28046">
        <ele>156</ele>
        <time>2018-04-17T08:17:57Z</time>
      </trkpt>
      <trkpt lat="46.98081" lon="2.28044">
        <ele>156</ele>
        <time>2018-04-17T08:18:02Z</time>
      </trkpt>
      <trkpt lat="46.9809" lon="2.28043">
        <ele>157</ele>
        <time>2018-04-17T08:18:05Z</time>
      </trkpt>
      <trkpt lat="46.98112" lon="2.28039">
        <ele>158</ele>
        <time>2018-04-17T08:18:13Z</time>
      </trkpt>
      <trkpt lat="46.98118" lon="2.28038">
        <ele>158</ele>
        <time>2018-04-17T08:18:15Z</time>
      </trkpt>
      <trkpt lat="46.98129" lon="2.28043">
        <ele>158</ele>
        <time>2018-04-17T08:18:20Z</time>
      </trkpt>
      <trkpt lat="46.98147" lon="2.28064">
        <ele>158</ele>
        <time>2018-04-17T08:18:26Z</time>
      </trkpt>
      <trkpt lat="46.98171" lon="2.28093">
        <ele>159</ele>
        <time>2018-04-17T08:18:34Z</time>
      </trkpt>
      <trkpt lat="46.9818" lon="2.28102">
        <ele>159</ele>
        <time>2018-04-17T08:18:37Z</time>
      </trkpt>
      <trkpt lat="46.9819" lon="2.28116">
        <ele>159</ele>
        <time>2018-04-17T08:18:41Z</time>
      </trkpt>
      <trkpt lat="46.98201" lon="2.2813">
        <ele>159</ele>
        <time>2018-04-17T08:18:46Z</time>
      </trkpt>
      <trkpt lat="46.98202" lon="2.28134">
        <ele>159</ele>
        <time>2018-04-17T08:18:49Z</time>
      </trkpt>
      <trkpt lat="46.98203" lon="2.28134">
        <ele>159</ele>
        <time>2018-04-17T08:18:51Z</time>
      </trkpt>
      <trkpt lat="46.98203" lon="2.28134">
        <ele>159</ele>
        <time>2018-04-17T08:19:01Z</time>
      </trkpt>
      <trkpt lat="46.98203" lon="2.28134">
        <ele>159</ele>
        <time>2018-04-17T08:19:23Z</time>
      </trkpt>
      <trkpt lat="46.98203" lon="2.28134">
        <ele>159</ele>
        <time>2018-04-17T08:19:40Z</time>
      </trkpt>
      <trkpt lat="46.98203" lon="2.28134">
        <ele>159</ele>
        <time>2018-04-17T08:19:56Z</time>
      </trkpt>
      <trkpt lat="46.98207" lon="2.28138">
        <ele>159</ele>
        <time>2018-04-17T08:20:02Z</time>
      </trkpt>
      <trkpt lat="46.98219" lon="2.28149">
        <ele>160</ele>
        <time>2018-04-17T08:20:06Z</time>
      </trkpt>
      <trkpt lat="46.98244" lon="2.28171">
        <ele>160</ele>
        <time>2018-04-17T08:20:14Z</time>
      </trkpt>
      <trkpt lat="46.98274" lon="2.28188">
        <ele>161</ele>
        <time>2018-04-17T08:20:23Z</time>
      </trkpt>
      <trkpt lat="46.98287" lon="2.28195">
        <ele>161</ele>
        <time>2018-04-17T08:20:27Z</time>
      </trkpt>
      <trkpt lat="46.98304" lon="2.28204">
        <ele>161</ele>
        <time>2018-04-17T08:20:32Z</time>
      </trkpt>
      <trkpt lat="46.98327" lon="2.28221">
        <ele>161</ele>
        <time>2018-04-17T08:20:39Z</time>
      </trkpt>
      <trkpt lat="46.9835" lon="2.28247">
        <ele>161</ele>
        <time>2018-04-17T08:20:47Z</time>
      </trkpt>
      <trkpt lat="46.98377" lon="2.28284">
        <ele>162</ele>
        <time>2018-04-17T08:20:56Z</time>
      </trkpt>
      <trkpt lat="46.98399" lon="2.28316">
        <ele>162</ele>
        <time>2018-04-17T08:21:05Z</time>
      </trkpt>
      <trkpt lat="46.98415" lon="2.28323">
        <ele>163</ele>
        <time>2018-04-17T08:21:11Z</time>
      </trkpt>
      <trkpt lat="46.98441" lon="2.2833">
        <ele>162</ele>
        <time>2018-04-17T08:21:18Z</time>
      </trkpt>
      <trkpt lat="46.98471" lon="2.28338">
        <ele>162</ele>
        <time>2018-04-17T08:21:26Z</time>
      </trkpt>
      <trkpt lat="46.98501" lon="2.28352">
        <ele>161</ele>
        <time>2018-04-17T08:21:34Z</time>
      </trkpt>
      <trkpt lat="46.98524" lon="2.28359">
        <ele>161</ele>
        <time>2018-04-17T08:21:41Z</time>
      </trkpt>
      <trkpt lat="46.98546" lon="2.28357">
        <ele>161</ele>
        <time>2018-04-17T08:21:47Z</time>
      </trkpt>
      <trkpt lat="46.98576" lon="2.28341">
        <ele>161</ele>
        <time>2018-04-17T08:21:55Z</time>
      </trkpt>
      <trkpt lat="46.98609" lon="2.28315">
        <ele>160</ele>
        <time>2018-04-17T08:22:04Z</time>
      </trkpt>
      <trkpt lat="46.98633" lon="2.28296">
        <ele>160</ele>
        <time>2018-04-17T08:22:11Z</time>
      </trkpt>
      <trkpt lat="46.98664" lon="2.28274">
        <ele>159</ele>
        <time>2018-04-17T08:22:20Z</time>
      </trkpt>
      <trkpt lat="46.98691" lon="2.28264">
        <ele>159</ele>
        <time>2018-04-17T08:22:27Z</time>
      </trkpt>
      <trkpt lat="46.98715" lon="2.2826">
        <ele>160</ele>
        <time>2018-04-17T08:22:34Z</time>
      </trkpt>
      <trkpt lat="46.98725" lon="2.28263">
        <ele>160</ele>
        <time>2018-04-17T08:22:40Z</time>
      </trkpt>
      <trkpt lat="46.98732" lon="2.28277">
        <ele>160</ele>
        <time>2018-04-17T08:22:45Z</time>
      </trkpt>
      <trkpt lat="46.98746" lon="2.28306">
        <ele>159</ele>
        <time>2018-04-17T08:22:53Z</time>
      </trkpt>
      <trkpt lat="46.98771" lon="2.28336">
        <ele>159</ele>
        <time>2018-04-17T08:23:02Z</time>
      </trkpt>
      <trkpt lat="46.98807" lon="2.28371">
        <ele>160</ele>
        <time>2018-04-17T08:23:13Z</time>
      </trkpt>
      <trkpt lat="46.98837" lon="2.28403">
        <ele>160</ele>
        <time>2018-04-17T08:23:22Z</time>
      </trkpt>
      <trkpt lat="46.98866" lon="2.28432">
        <ele>161</ele>
        <time>2018-04-17T08:23:30Z</time>
      </trkpt>
      <trkpt lat="46.98903" lon="2.2847">
        <ele>162</ele>
        <time>2018-04-17T08:23:41Z</time>
      </trkpt>
      <trkpt lat="46.9892" lon="2.28488">
        <ele>162</ele>
        <time>2018-04-17T08:23:48Z</time>
      </trkpt>
      <trkpt lat="46.98934" lon="2.285">
        <ele>162</ele>
        <time>2018-04-17T08:23:53Z</time>
      </trkpt>
      <trkpt lat="46.98957" lon="2.28523">
        <ele>161</ele>
        <time>2018-04-17T08:24:00Z</time>
      </trkpt>
      <trkpt lat="46.98987" lon="2.28555">
        <ele>161</ele>
        <time>2018-04-17T08:24:09Z</time>
      </trkpt>
      <trkpt lat="46.99008" lon="2.28577">
        <ele>161</ele>
        <time>2018-04-17T08:24:16Z</time>
      </trkpt>
      <trkpt lat="46.9902" lon="2.28592">
        <ele>161</ele>
        <time>2018-04-17T08:24:22Z</time>
      </trkpt>
      <trkpt lat="46.99033" lon="2.28611">
        <ele>160</ele>
        <time>2018-04-17T08:24:31Z</time>
      </trkpt>
      <trkpt lat="46.99044" lon="2.28619">
        <ele>160</ele>
        <time>2018-04-17T08:24:37Z</time>
      </trkpt>
      <trkpt lat="46.99055" lon="2.28628">
        <ele>160</ele>
        <time>2018-04-17T08:24:43Z</time>
      </trkpt>
      <trkpt lat="46.99059" lon="2.28631">
        <ele>160</ele>
        <time>2018-04-17T08:24:48Z</time>
      </trkpt>
      <trkpt lat="46.99059" lon="2.28631">
        <ele>160</ele>
        <time>2018-04-17T08:24:49Z</time>
      </trkpt>
      <trkpt lat="46.99059" lon="2.28631">
        <ele>160</ele>
        <time>2018-04-17T08:24:57Z</time>
      </trkpt>
      <trkpt lat="46.99059" lon="2.28631">
        <ele>160</ele>
        <time>2018-04-17T08:25:13Z</time>
      </trkpt>
      <trkpt lat="46.99059" lon="2.28631">
        <ele>160</ele>
        <time>2018-04-17T08:25:28Z</time>
      </trkpt>
      <trkpt lat="46.99059" lon="2.28631">
        <ele>160</ele>
        <time>2018-04-17T08:25:43Z</time>
      </trkpt>
      <trkpt lat="46.99059" lon="2.28631">
        <ele>160</ele>
        <time>2018-04-17T08:25:55Z</time>
      </trkpt>
      <trkpt lat="46.99059" lon="2.28631">
        <ele>160</ele>
        <time>2018-04-17T08:26:04Z</time>
      </trkpt>
      <trkpt lat="46.99059" lon="2.28631">
        <ele>160</ele>
        <time>2018-04-17T08:26:07Z</time>
      </trkpt>
      <trkpt lat="46.99059" lon="2.28631">
        <ele>160</ele>
        <time>2018-04-17T08:26:15Z</time>
      </trkpt>
      <trkpt lat="46.99058" lon="2.28631">
        <ele>160</ele>
        <time>2018-04-17T08:26:21Z</time>
      </trkpt>
      <trkpt lat="46.99054" lon="2.28627">
        <ele>160</ele>
        <time>2018-04-17T08:26:28Z</time>
      </trkpt>
      <trkpt lat="46.99038" lon="2.28615">
        <ele>160</ele>
        <time>2018-04-17T08:26:34Z</time>
      </trkpt>
      <trkpt lat="46.99023" lon="2.28597">
        <ele>160</ele>
        <time>2018-04-17T08:26:40Z</time>
      </trkpt>
      <trkpt lat="46.99005" lon="2.28575">
        <ele>161</ele>
        <time>2018-04-17T08:26:47Z</time>
      </trkpt>
      <trkpt lat="46.98995" lon="2.28565">
        <ele>161</ele>
        <time>2018-04-17T08:26:50Z</time>
      </trkpt>
      <trkpt lat="46.98987" lon="2.28558">
        <ele>161</ele>
        <time>2018-04-17T08:26:52Z</time>
      </trkpt>
      <trkpt lat="46.98956" lon="2.28527">
        <ele>161</ele>
        <time>2018-04-17T08:27:00Z</time>
      </trkpt>
      <trkpt lat="46.98928" lon="2.28498">
        <ele>162</ele>
        <time>2018-04-17T08:27:08Z</time>
      </trkpt>
      <trkpt lat="46.98899" lon="2.28467">
        <ele>161</ele>
        <time>2018-04-17T08:27:17Z</time>
      </trkpt>
      <trkpt lat="46.98863" lon="2.28429">
        <ele>161</ele>
        <time>2018-04-17T08:27:27Z</time>
      </trkpt>
      <trkpt lat="46.9883" lon="2.28396">
        <ele>160</ele>
        <time>2018-04-17T08:27:36Z</time>
      </trkpt>
      <trkpt lat="46.98795" lon="2.28361">
        <ele>160</ele>
        <time>2018-04-17T08:27:46Z</time>
      </trkpt>
      <trkpt lat="46.98768" lon="2.28333">
        <ele>159</ele>
        <time>2018-04-17T08:27:54Z</time>
      </trkpt>
      <trkpt lat="46.98762" lon="2.28326">
        <ele>159</ele>
        <time>2018-04-17T08:27:56Z</time>
      </trkpt>
      <trkpt lat="46.98735" lon="2.28291">
        <ele>160</ele>
        <time>2018-04-17T08:28:05Z</time>
      </trkpt>
      <trkpt lat="46.98727" lon="2.28268">
        <ele>160</ele>
        <time>2018-04-17T08:28:11Z</time>
      </trkpt>
      <trkpt lat="46.98727" lon="2.28263">
        <ele>160</ele>
        <time>2018-04-17T08:28:13Z</time>
      </trkpt>
      <trkpt lat="46.98727" lon="2.28263">
        <ele>160</ele>
        <time>2018-04-17T08:28:15Z</time>
      </trkpt>
      <trkpt lat="46.98727" lon="2.28262">
        <ele>160</ele>
        <time>2018-04-17T08:28:25Z</time>
      </trkpt>
      <trkpt lat="46.98727" lon="2.28262">
        <ele>160</ele>
        <time>2018-04-17T08:28:46Z</time>
      </trkpt>
      <trkpt lat="46.98727" lon="2.28263">
        <ele>160</ele>
        <time>2018-04-17T08:29:01Z</time>
      </trkpt>
      <trkpt lat="46.98727" lon="2.28263">
        <ele>160</ele>
        <time>2018-04-17T08:29:13Z</time>
      </trkpt>
      <trkpt lat="46.98734" lon="2.28263">
        <ele>160</ele>
        <time>2018-04-17T08:29:17Z</time>
      </trkpt>
      <trkpt lat="46.98744" lon="2.28264">
        <ele>160</ele>
        <time>2018-04-17T08:29:20Z</time>
      </trkpt>
      <trkpt lat="46.98756" lon="2.28263">
        <ele>160</ele>
        <time>2018-04-17T08:29:23Z</time>
      </trkpt>
      <trkpt lat="46.98794" lon="2.28265">
        <ele>160</ele>
        <time>2018-04-17T08:29:31Z</time>
      </trkpt>
      <trkpt lat="46.98837" lon="2.28271">
        <ele>160</ele>
        <time>2018-04-17T08:29:40Z</time>
      </trkpt>
      <trkpt lat="46.98869" lon="2.28286">
        <ele>160</ele>
        <time>2018-04-17T08:29:47Z</time>
      </trkpt>
      <trkpt lat="46.98906" lon="2.28301">
        <ele>160</ele>
        <time>2018-04-17T08:29:55Z</time>
      </trkpt>
      <trkpt lat="46.98925" lon="2.28304">
        <ele>160</ele>
        <time>2018-04-17T08:29:59Z</time>
      </trkpt>
      <trkpt lat="46.98934" lon="2.28305">
        <ele>160</ele>
        <time>2018-04-17T08:30:01Z</time>
      </trkpt>
      <trkpt lat="46.98968" lon="2.28304">
        <ele>160</ele>
        <time>2018-04-17T08:30:08Z</time>
      </trkpt>
      <trkpt lat="46.98976" lon="2.28303">
        <ele>160</ele>
        <time>2018-04-17T08:30:10Z</time>
      </trkpt>
      <trkpt lat="46.9898" lon="2.28302">
        <ele>160</ele>
        <time>2018-04-17T08:30:11Z</time>
      </trkpt>
      <trkpt lat="46.99004" lon="2.28293">
        <ele>160</ele>
        <time>2018-04-17T08:30:17Z</time>
      </trkpt>
      <trkpt lat="46.99038" lon="2.28272">
        <ele>160</ele>
        <time>2018-04-17T08:30:25Z</time>
      </trkpt>
      <trkpt lat="46.99076" lon="2.28248">
        <ele>159</ele>
        <time>2018-04-17T08:30:34Z</time>
      </trkpt>
      <trkpt lat="46.99115" lon="2.28225">
        <ele>159</ele>
        <time>2018-04-17T08:30:43Z</time>
      </trkpt>
      <trkpt lat="46.99134" lon="2.28206">
        <ele>159</ele>
        <time>2018-04-17T08:30:49Z</time>
      </trkpt>
      <trkpt lat="46.9914" lon="2.28184">
        <ele>159</ele>
        <time>2018-04-17T08:30:55Z</time>
      </trkpt>
      <trkpt lat="46.99144" lon="2.28155">
        <ele>159</ele>
        <time>2018-04-17T08:31:01Z</time>
      </trkpt>
      <trkpt lat="46.99149" lon="2.28125">
        <ele>159</ele>
        <time>2018-04-17T08:31:08Z</time>
      </trkpt>
      <trkpt lat="46.99155" lon="2.28089">
        <ele>160</ele>
        <time>2018-04-17T08:31:17Z</time>
      </trkpt>
      <trkpt lat="46.99158" lon="2.28059">
        <ele>160</ele>
        <time>2018-04-17T08:31:24Z</time>
      </trkpt>
      <trkpt lat="46.99162" lon="2.28027">
        <ele>160</ele>
        <time>2018-04-17T08:31:32Z</time>
      </trkpt>
      <trkpt lat="46.99165" lon="2.28002">
        <ele>161</ele>
        <time>2018-04-17T08:31:39Z</time>
      </trkpt>
      <trkpt lat="46.99168" lon="2.27968">
        <ele>160</ele>
        <time>2018-04-17T08:31:47Z</time>
      </trkpt>
      <trkpt lat="46.99173" lon="2.27935">
        <ele>160</ele>
        <time>2018-04-17T08:31:55Z</time>
      </trkpt>
      <trkpt lat="46.99178" lon="2.27908">
        <ele>160</ele>
        <time>2018-04-17T08:32:02Z</time>
      </trkpt>
      <trkpt lat="46.9919" lon="2.27875">
        <ele>160</ele>
        <time>2018-04-17T08:32:09Z</time>
      </trkpt>
      <trkpt lat="46.99201" lon="2.27839">
        <ele>160</ele>
        <time>2018-04-17T08:32:16Z</time>
      </trkpt>
      <trkpt lat="46.99222" lon="2.27781">
        <ele>159</ele>
        <time>2018-04-17T08:32:27Z</time>
      </trkpt>
      <trkpt lat="46.9923" lon="2.27748">
        <ele>159</ele>
        <time>2018-04-17T08:32:34Z</time>
      </trkpt>
      <trkpt lat="46.99234" lon="2.27725">
        <ele>159</ele>
        <time>2018-04-17T08:32:40Z</time>
      </trkpt>
      <trkpt lat="46.99235" lon="2.27689">
        <ele>159</ele>
        <time>2018-04-17T08:32:48Z</time>
      </trkpt>
      <trkpt lat="46.99238" lon="2.2766">
        <ele>160</ele>
        <time>2018-04-17T08:32:53Z</time>
      </trkpt>
      <trkpt lat="46.9924" lon="2.27627">
        <ele>160</ele>
        <time>2018-04-17T08:32:58Z</time>
      </trkpt>
      <trkpt lat="46.9924" lon="2.27621">
        <ele>160</ele>
        <time>2018-04-17T08:32:59Z</time>
      </trkpt>
      <trkpt lat="46.99242" lon="2.27573">
        <ele>161</ele>
        <time>2018-04-17T08:33:07Z</time>
      </trkpt>
      <trkpt lat="46.99244" lon="2.27514">
        <ele>162</ele>
        <time>2018-04-17T08:33:17Z</time>
      </trkpt>
      <trkpt lat="46.99243" lon="2.27508">
        <ele>162</ele>
        <time>2018-04-17T08:33:18Z</time>
      </trkpt>
      <trkpt lat="46.99245" lon="2.27467">
        <ele>161</ele>
        <time>2018-04-17T08:33:25Z</time>
      </trkpt>
      <trkpt lat="46.99246" lon="2.27428">
        <ele>161</ele>
        <time>2018-04-17T08:33:33Z</time>
      </trkpt>
      <trkpt lat="46.99246" lon="2.2742">
        <ele>160</ele>
        <time>2018-04-17T08:33:37Z</time>
      </trkpt>
      <trkpt lat="46.99247" lon="2.27419">
        <ele>160</ele>
        <time>2018-04-17T08:33:38Z</time>
      </trkpt>
      <trkpt lat="46.9925" lon="2.27414">
        <ele>160</ele>
        <time>2018-04-17T08:33:45Z</time>
      </trkpt>
      <trkpt lat="46.9925" lon="2.27414">
        <ele>160</ele>
        <time>2018-04-17T08:33:50Z</time>
      </trkpt>
      <trkpt lat="46.9925" lon="2.27414">
        <ele>160</ele>
        <time>2018-04-17T08:33:53Z</time>
      </trkpt>
      <trkpt lat="46.9925" lon="2.27414">
        <ele>160</ele>
        <time>2018-04-17T08:34:01Z</time>
      </trkpt>
      <trkpt lat="46.9925" lon="2.27413">
        <ele>160</ele>
        <time>2018-04-17T08:34:04Z</time>
      </trkpt>
      <trkpt lat="46.99254" lon="2.27409">
        <ele>160</ele>
        <time>2018-04-17T08:34:07Z</time>
      </trkpt>
      <trkpt lat="46.99261" lon="2.27404">
        <ele>160</ele>
        <time>2018-04-17T08:34:10Z</time>
      </trkpt>
      <trkpt lat="46.99267" lon="2.274">
        <ele>159</ele>
        <time>2018-04-17T08:34:12Z</time>
      </trkpt>
      <trkpt lat="46.9929" lon="2.27387">
        <ele>159</ele>
        <time>2018-04-17T08:34:18Z</time>
      </trkpt>
      <trkpt lat="46.99294" lon="2.27384">
        <ele>159</ele>
        <time>2018-04-17T08:34:19Z</time>
      </trkpt>
      <trkpt lat="46.99331" lon="2.27361">
        <ele>158</ele>
        <time>2018-04-17T08:34:27Z</time>
      </trkpt>
      <trkpt lat="46.99357" lon="2.27345">
        <ele>158</ele>
        <time>2018-04-17T08:34:32Z</time>
      </trkpt>
      <trkpt lat="46.99377" lon="2.27333">
        <ele>157</ele>
        <time>2018-04-17T08:34:36Z</time>
      </trkpt>
      <trkpt lat="46.99391" lon="2.27324">
        <ele>157</ele>
        <time>2018-04-17T08:34:39Z</time>
      </trkpt>
      <trkpt lat="46.994" lon="2.27318">
        <ele>157</ele>
        <time>2018-04-17T08:34:41Z</time>
      </trkpt>
      <trkpt lat="46.99418" lon="2.27306">
        <ele>157</ele>
        <time>2018-04-17T08:34:45Z</time>
      </trkpt>
      <trkpt lat="46.99453" lon="2.27273">
        <ele>158</ele>
        <time>2018-04-17T08:34:53Z</time>
      </trkpt>
      <trkpt lat="46.99468" lon="2.2725">
        <ele>158</ele>
        <time>2018-04-17T08:34:57Z</time>
      </trkpt>
      <trkpt lat="46.99477" lon="2.2723">
        <ele>158</ele>
        <time>2018-04-17T08:35:00Z</time>
      </trkpt>
      <trkpt lat="46.99495" lon="2.27176">
        <ele>159</ele>
        <time>2018-04-17T08:35:08Z</time>
      </trkpt>
      <trkpt lat="46.99502" lon="2.27156">
        <ele>159</ele>
        <time>2018-04-17T08:35:11Z</time>
      </trkpt>
      <trkpt lat="46.99511" lon="2.27127">
        <ele>160</ele>
        <time>2018-04-17T08:35:15Z</time>
      </trkpt>
      <trkpt lat="46.99523" lon="2.27089">
        <ele>159</ele>
        <time>2018-04-17T08:35:21Z</time>
      </trkpt>
      <trkpt lat="46.99525" lon="2.27083">
        <ele>158</ele>
        <time>2018-04-17T08:35:22Z</time>
      </trkpt>
      <trkpt lat="46.99527" lon="2.27078">
        <ele>158</ele>
        <time>2018-04-17T08:35:23Z</time>
      </trkpt>
      <trkpt lat="46.99536" lon="2.2706">
        <ele>158</ele>
        <time>2018-04-17T08:35:26Z</time>
      </trkpt>
      <trkpt lat="46.99536" lon="2.27053">
        <ele>158</ele>
        <time>2018-04-17T08:35:27Z</time>
      </trkpt>
      <trkpt lat="46.99545" lon="2.27011">
        <ele>157</ele>
        <time>2018-04-17T08:35:33Z</time>
      </trkpt>
      <trkpt lat="46.9955" lon="2.2699">
        <ele>155</ele>
        <time>2018-04-17T08:35:36Z</time>
      </trkpt>
      <trkpt lat="46.99563" lon="2.26945">
        <ele>154</ele>
        <time>2018-04-17T08:35:42Z</time>
      </trkpt>
      <trkpt lat="46.99584" lon="2.26879">
        <ele>154</ele>
        <time>2018-04-17T08:35:51Z</time>
      </trkpt>
      <trkpt lat="46.996" lon="2.26829">
        <ele>154</ele>
        <time>2018-04-17T08:35:58Z</time>
      </trkpt>
      <trkpt lat="46.99616" lon="2.26778">
        <ele>155</ele>
        <time>2018-04-17T08:36:06Z</time>
      </trkpt>
      <trkpt lat="46.99618" lon="2.26772">
        <ele>155</ele>
        <time>2018-04-17T08:36:07Z</time>
      </trkpt>
      <trkpt lat="46.99635" lon="2.2674">
        <ele>156</ele>
        <time>2018-04-17T08:36:13Z</time>
      </trkpt>
      <trkpt lat="46.99663" lon="2.26709">
        <ele>156</ele>
        <time>2018-04-17T08:36:20Z</time>
      </trkpt>
      <trkpt lat="46.99686" lon="2.26693">
        <ele>156</ele>
        <time>2018-04-17T08:36:25Z</time>
      </trkpt>
      <trkpt lat="46.99694" lon="2.26686">
        <ele>156</ele>
        <time>2018-04-17T08:36:27Z</time>
      </trkpt>
      <trkpt lat="46.99699" lon="2.26684">
        <ele>156</ele>
        <time>2018-04-17T08:36:28Z</time>
      </trkpt>
      <trkpt lat="46.99732" lon="2.26662">
        <ele>156</ele>
        <time>2018-04-17T08:36:35Z</time>
      </trkpt>
      <trkpt lat="46.99773" lon="2.26637">
        <ele>156</ele>
        <time>2018-04-17T08:36:44Z</time>
      </trkpt>
      <trkpt lat="46.99812" lon="2.26614">
        <ele>156</ele>
        <time>2018-04-17T08:36:53Z</time>
      </trkpt>
      <trkpt lat="46.99852" lon="2.26589">
        <ele>157</ele>
        <time>2018-04-17T08:37:03Z</time>
      </trkpt>
      <trkpt lat="46.99882" lon="2.26578">
        <ele>158</ele>
        <time>2018-04-17T08:37:11Z</time>
      </trkpt>
      <trkpt lat="46.999" lon="2.26567">
        <ele>158</ele>
        <time>2018-04-17T08:37:16Z</time>
      </trkpt>
      <trkpt lat="46.99923" lon="2.26552">
        <ele>157</ele>
        <time>2018-04-17T08:37:22Z</time>
      </trkpt>
      <trkpt lat="46.99933" lon="2.26543">
        <ele>157</ele>
        <time>2018-04-17T08:37:25Z</time>
      </trkpt>
      <trkpt lat="46.99943" lon="2.26532">
        <ele>157</ele>
        <time>2018-04-17T08:37:28Z</time>
      </trkpt>
      <trkpt lat="46.99966" lon="2.26493">
        <ele>157</ele>
        <time>2018-04-17T08:37:36Z</time>
      </trkpt>
      <trkpt lat="46.99985" lon="2.26457">
        <ele>157</ele>
        <time>2018-04-17T08:37:43Z</time>
      </trkpt>
      <trkpt lat="46.99994" lon="2.2644">
        <ele>157</ele>
        <time>2018-04-17T08:37:48Z</time>
      </trkpt>
      <trkpt lat="46.99997" lon="2.26434">
        <ele>157</ele>
        <time>2018-04-17T08:37:53Z</time>
      </trkpt>
      <trkpt lat="47.00003" lon="2.26424">
        <ele>157</ele>
        <time>2018-04-17T08:37:58Z</time>
      </trkpt>
      <trkpt lat="47.00014" lon="2.26403">
        <ele>157</ele>
        <time>2018-04-17T08:38:05Z</time>
      </trkpt>
      <trkpt lat="47.00016" lon="2.26401">
        <ele>157</ele>
        <time>2018-04-17T08:38:06Z</time>
      </trkpt>
      <trkpt lat="47.00021" lon="2.26398">
        <ele>156</ele>
        <time>2018-04-17T08:38:09Z</time>
      </trkpt>
      <trkpt lat="47.00029" lon="2.26399">
        <ele>156</ele>
        <time>2018-04-17T08:38:12Z</time>
      </trkpt>
      <trkpt lat="47.00034" lon="2.26403">
        <ele>156</ele>
        <time>2018-04-17T08:38:14Z</time>
      </trkpt>
      <trkpt lat="47.00047" lon="2.26411">
        <ele>156</ele>
        <time>2018-04-17T08:38:19Z</time>
      </trkpt>
      <trkpt lat="47.00061" lon="2.2642">
        <ele>156</ele>
        <time>2018-04-17T08:38:24Z</time>
      </trkpt>
      <trkpt lat="47.0007" lon="2.26426">
        <ele>156</ele>
        <time>2018-04-17T08:38:30Z</time>
      </trkpt>
      <trkpt lat="47.00079" lon="2.26433">
        <ele>156</ele>
        <time>2018-04-17T08:38:36Z</time>
      </trkpt>
      <trkpt lat="47.00091" lon="2.26442">
        <ele>155</ele>
        <time>2018-04-17T08:38:43Z</time>
      </trkpt>
      <trkpt lat="47.00107" lon="2.26452">
        <ele>155</ele>
        <time>2018-04-17T08:38:50Z</time>
      </trkpt>
      <trkpt lat="47.00115" lon="2.26457">
        <ele>155</ele>
        <time>2018-04-17T08:38:53Z</time>
      </trkpt>
      <trkpt lat="47.00123" lon="2.26462">
        <ele>155</ele>
        <time>2018-04-17T08:38:56Z</time>
      </trkpt>
      <trkpt lat="47.00135" lon="2.2647">
        <ele>155</ele>
        <time>2018-04-17T08:39:02Z</time>
      </trkpt>
      <trkpt lat="47.00135" lon="2.26471">
        <ele>155</ele>
        <time>2018-04-17T08:39:06Z</time>
      </trkpt>
      <trkpt lat="47.00135" lon="2.26471">
        <ele>155</ele>
        <time>2018-04-17T08:39:17Z</time>
      </trkpt>
      <trkpt lat="47.00135" lon="2.26471">
        <ele>155</ele>
        <time>2018-04-17T08:39:28Z</time>
      </trkpt>
      <trkpt lat="47.00135" lon="2.26471">
        <ele>155</ele>
        <time>2018-04-17T08:39:32Z</time>
      </trkpt>
      <trkpt lat="47.00137" lon="2.26475">
        <ele>155</ele>
        <time>2018-04-17T08:39:34Z</time>
      </trkpt>
      <trkpt lat="47.00146" lon="2.26486">
        <ele>154</ele>
        <time>2018-04-17T08:39:38Z</time>
      </trkpt>
      <trkpt lat="47.00148" lon="2.26489">
        <ele>154</ele>
        <time>2018-04-17T08:39:39Z</time>
      </trkpt>
      <trkpt lat="47.00159" lon="2.26507">
        <ele>154</ele>
        <time>2018-04-17T08:39:43Z</time>
      </trkpt>
      <trkpt lat="47.00161" lon="2.26512">
        <ele>154</ele>
        <time>2018-04-17T08:39:44Z</time>
      </trkpt>
      <trkpt lat="47.0018" lon="2.26555">
        <ele>153</ele>
        <time>2018-04-17T08:39:52Z</time>
      </trkpt>
      <trkpt lat="47.00197" lon="2.26596">
        <ele>153</ele>
        <time>2018-04-17T08:39:59Z</time>
      </trkpt>
      <trkpt lat="47.00208" lon="2.26639">
        <ele>153</ele>
        <time>2018-04-17T08:40:06Z</time>
      </trkpt>
      <trkpt lat="47.00209" lon="2.26645">
        <ele>153</ele>
        <time>2018-04-17T08:40:07Z</time>
      </trkpt>
      <trkpt lat="47.00215" lon="2.26703">
        <ele>152</ele>
        <time>2018-04-17T08:40:16Z</time>
      </trkpt>
      <trkpt lat="47.00221" lon="2.26764">
        <ele>152</ele>
        <time>2018-04-17T08:40:25Z</time>
      </trkpt>
      <trkpt lat="47.00222" lon="2.26771">
        <ele>152</ele>
        <time>2018-04-17T08:40:26Z</time>
      </trkpt>
      <trkpt lat="47.00228" lon="2.2683">
        <ele>152</ele>
        <time>2018-04-17T08:40:34Z</time>
      </trkpt>
      <trkpt lat="47.0023" lon="2.26844">
        <ele>152</ele>
        <time>2018-04-17T08:40:36Z</time>
      </trkpt>
      <trkpt lat="47.0024" lon="2.26895">
        <ele>154</ele>
        <time>2018-04-17T08:40:43Z</time>
      </trkpt>
      <trkpt lat="47.00242" lon="2.26902">
        <ele>154</ele>
        <time>2018-04-17T08:40:44Z</time>
      </trkpt>
      <trkpt lat="47.00256" lon="2.26941">
        <ele>154</ele>
        <time>2018-04-17T08:40:50Z</time>
      </trkpt>
      <trkpt lat="47.00275" lon="2.26988">
        <ele>156</ele>
        <time>2018-04-17T08:40:58Z</time>
      </trkpt>
      <trkpt lat="47.00288" lon="2.27014">
        <ele>157</ele>
        <time>2018-04-17T08:41:03Z</time>
      </trkpt>
      <trkpt lat="47.00293" lon="2.27022">
        <ele>157</ele>
        <time>2018-04-17T08:41:05Z</time>
      </trkpt>
      <trkpt lat="47.00299" lon="2.27031">
        <ele>157</ele>
        <time>2018-04-17T08:41:09Z</time>
      </trkpt>
      <trkpt lat="47.00301" lon="2.27033">
        <ele>157</ele>
        <time>2018-04-17T08:41:10Z</time>
      </trkpt>
      <trkpt lat="47.00314" lon="2.27049">
        <ele>157</ele>
        <time>2018-04-17T08:41:16Z</time>
      </trkpt>
      <trkpt lat="47.00318" lon="2.27053">
        <ele>157</ele>
        <time>2018-04-17T08:41:17Z</time>
      </trkpt>
      <trkpt lat="47.00332" lon="2.2707">
        <ele>157</ele>
        <time>2018-04-17T08:41:21Z</time>
      </trkpt>
      <trkpt lat="47.00352" lon="2.27103">
        <ele>157</ele>
        <time>2018-04-17T08:41:28Z</time>
      </trkpt>
      <trkpt lat="47.00371" lon="2.27144">
        <ele>158</ele>
        <time>2018-04-17T08:41:36Z</time>
      </trkpt>
      <trkpt lat="47.0039" lon="2.27185">
        <ele>159</ele>
        <time>2018-04-17T08:41:44Z</time>
      </trkpt>
      <trkpt lat="47.00392" lon="2.2719">
        <ele>159</ele>
        <time>2018-04-17T08:41:45Z</time>
      </trkpt>
      <trkpt lat="47.00406" lon="2.2722">
        <ele>159</ele>
        <time>2018-04-17T08:41:51Z</time>
      </trkpt>
      <trkpt lat="47.00417" lon="2.27249">
        <ele>159</ele>
        <time>2018-04-17T08:41:57Z</time>
      </trkpt>
      <trkpt lat="47.00435" lon="2.27288">
        <ele>157</ele>
        <time>2018-04-17T08:42:04Z</time>
      </trkpt>
      <trkpt lat="47.00454" lon="2.27327">
        <ele>157</ele>
        <time>2018-04-17T08:42:11Z</time>
      </trkpt>
      <trkpt lat="47.00458" lon="2.27332">
        <ele>157</ele>
        <time>2018-04-17T08:42:12Z</time>
      </trkpt>
      <trkpt lat="47.00461" lon="2.27337">
        <ele>157</ele>
        <time>2018-04-17T08:42:13Z</time>
      </trkpt>
      <trkpt lat="47.00483" lon="2.27381">
        <ele>156</ele>
        <time>2018-04-17T08:42:21Z</time>
      </trkpt>
      <trkpt lat="47.00505" lon="2.27426">
        <ele>155</ele>
        <time>2018-04-17T08:42:30Z</time>
      </trkpt>
      <trkpt lat="47.00526" lon="2.27462">
        <ele>155</ele>
        <time>2018-04-17T08:42:38Z</time>
      </trkpt>
      <trkpt lat="47.00554" lon="2.27502">
        <ele>156</ele>
        <time>2018-04-17T08:42:47Z</time>
      </trkpt>
      <trkpt lat="47.00569" lon="2.27526">
        <ele>156</ele>
        <time>2018-04-17T08:42:53Z</time>
      </trkpt>
      <trkpt lat="47.00581" lon="2.27554">
        <ele>156</ele>
        <time>2018-04-17T08:43:00Z</time>
      </trkpt>
      <trkpt lat="47.00591" lon="2.27584">
        <ele>156</ele>
        <time>2018-04-17T08:43:07Z</time>
      </trkpt>
      <trkpt lat="47.00603" lon="2.27616">
        <ele>156</ele>
        <time>2018-04-17T08:43:14Z</time>
      </trkpt>
      <trkpt lat="47.0062" lon="2.2766">
        <ele>156</ele>
        <time>2018-04-17T08:43:23Z</time>
      </trkpt>
      <trkpt lat="47.00635" lon="2.27692">
        <ele>157</ele>
        <time>2018-04-17T08:43:30Z</time>
      </trkpt>
      <trkpt lat="47.00643" lon="2.27712">
        <ele>158</ele>
        <time>2018-04-17T08:43:34Z</time>
      </trkpt>
      <trkpt lat="47.00646" lon="2.27722">
        <ele>158</ele>
        <time>2018-04-17T08:43:36Z</time>
      </trkpt>
      <trkpt lat="47.00656" lon="2.27761">
        <ele>159</ele>
        <time>2018-04-17T08:43:43Z</time>
      </trkpt>
      <trkpt lat="47.00657" lon="2.27767">
        <ele>159</ele>
        <time>2018-04-17T08:43:44Z</time>
      </trkpt>
      <trkpt lat="47.0066" lon="2.2779">
        <ele>160</ele>
        <time>2018-04-17T08:43:48Z</time>
      </trkpt>
      <trkpt lat="47.00662" lon="2.27828">
        <ele>160</ele>
        <time>2018-04-17T08:43:55Z</time>
      </trkpt>
      <trkpt lat="47.00667" lon="2.27875">
        <ele>159</ele>
        <time>2018-04-17T08:44:03Z</time>
      </trkpt>
      <trkpt lat="47.00674" lon="2.27922">
        <ele>161</ele>
        <time>2018-04-17T08:44:11Z</time>
      </trkpt>
      <trkpt lat="47.00681" lon="2.27961">
        <ele>160</ele>
        <time>2018-04-17T08:44:18Z</time>
      </trkpt>
      <trkpt lat="47.0069" lon="2.28012">
        <ele>159</ele>
        <time>2018-04-17T08:44:27Z</time>
      </trkpt>
      <trkpt lat="47.00693" lon="2.28024">
        <ele>159</ele>
        <time>2018-04-17T08:44:29Z</time>
      </trkpt>
      <trkpt lat="47.00696" lon="2.28035">
        <ele>159</ele>
        <time>2018-04-17T08:44:31Z</time>
      </trkpt>
      <trkpt lat="47.00706" lon="2.28063">
        <ele>158</ele>
        <time>2018-04-17T08:44:36Z</time>
      </trkpt>
      <trkpt lat="47.0072" lon="2.2811">
        <ele>158</ele>
        <time>2018-04-17T08:44:44Z</time>
      </trkpt>
      <trkpt lat="47.00722" lon="2.28115">
        <ele>158</ele>
        <time>2018-04-17T08:44:45Z</time>
      </trkpt>
      <trkpt lat="47.0073" lon="2.28144">
        <ele>158</ele>
        <time>2018-04-17T08:44:51Z</time>
      </trkpt>
      <trkpt lat="47.00734" lon="2.28163">
        <ele>157</ele>
        <time>2018-04-17T08:44:56Z</time>
      </trkpt>
      <trkpt lat="47.00734" lon="2.28168">
        <ele>157</ele>
        <time>2018-04-17T08:44:57Z</time>
      </trkpt>
      <trkpt lat="47.00735" lon="2.28174">
        <ele>157</ele>
        <time>2018-04-17T08:44:58Z</time>
      </trkpt>
      <trkpt lat="47.00736" lon="2.28181">
        <ele>157</ele>
        <time>2018-04-17T08:44:59Z</time>
      </trkpt>
      <trkpt lat="47.00739" lon="2.28195">
        <ele>158</ele>
        <time>2018-04-17T08:45:01Z</time>
      </trkpt>
      <trkpt lat="47.00748" lon="2.28228">
        <ele>157</ele>
        <time>2018-04-17T08:45:06Z</time>
      </trkpt>
      <trkpt lat="47.00755" lon="2.28246">
        <ele>155</ele>
        <time>2018-04-17T08:45:09Z</time>
      </trkpt>
      <trkpt lat="47.00769" lon="2.28282">
        <ele>153</ele>
        <time>2018-04-17T08:45:15Z</time>
      </trkpt>
      <trkpt lat="47.00772" lon="2.28287">
        <ele>153</ele>
        <time>2018-04-17T08:45:16Z</time>
      </trkpt>
      <trkpt lat="47.00778" lon="2.28305">
        <ele>153</ele>
        <time>2018-04-17T08:45:19Z</time>
      </trkpt>
      <trkpt lat="47.00786" lon="2.28333">
        <ele>153</ele>
        <time>2018-04-17T08:45:23Z</time>
      </trkpt>
      <trkpt lat="47.00793" lon="2.28354">
        <ele>152</ele>
        <time>2018-04-17T08:45:26Z</time>
      </trkpt>
      <trkpt lat="47.00812" lon="2.28418">
        <ele>151</ele>
        <time>2018-04-17T08:45:36Z</time>
      </trkpt>
      <trkpt lat="47.0083" lon="2.28483">
        <ele>151</ele>
        <time>2018-04-17T08:45:46Z</time>
      </trkpt>
      <trkpt lat="47.00835" lon="2.28501">
        <ele>151</ele>
        <time>2018-04-17T08:45:49Z</time>
      </trkpt>
      <trkpt lat="47.00841" lon="2.2852">
        <ele>151</ele>
        <time>2018-04-17T08:45:52Z</time>
      </trkpt>
      <trkpt lat="47.00852" lon="2.28562">
        <ele>151</ele>
        <time>2018-04-17T08:45:59Z</time>
      </trkpt>
      <trkpt lat="47.00869" lon="2.28618">
        <ele>151</ele>
        <time>2018-04-17T08:46:08Z</time>
      </trkpt>
      <trkpt lat="47.00886" lon="2.2868">
        <ele>150</ele>
        <time>2018-04-17T08:46:17Z</time>
      </trkpt>
      <trkpt lat="47.00888" lon="2.28687">
        <ele>150</ele>
        <time>2018-04-17T08:46:18Z</time>
      </trkpt>
      <trkpt lat="47.0089" lon="2.28694">
        <ele>150</ele>
        <time>2018-04-17T08:46:19Z</time>
      </trkpt>
      <trkpt lat="47.00897" lon="2.28717">
        <ele>150</ele>
        <time>2018-04-17T08:46:22Z</time>
      </trkpt>
      <trkpt lat="47.00904" lon="2.2874">
        <ele>150</ele>
        <time>2018-04-17T08:46:25Z</time>
      </trkpt>
      <trkpt lat="47.00915" lon="2.28779">
        <ele>149</ele>
        <time>2018-04-17T08:46:30Z</time>
      </trkpt>
      <trkpt lat="47.0092" lon="2.28794">
        <ele>150</ele>
        <time>2018-04-17T08:46:32Z</time>
      </trkpt>
      <trkpt lat="47.00929" lon="2.28826">
        <ele>150</ele>
        <time>2018-04-17T08:46:36Z</time>
      </trkpt>
      <trkpt lat="47.00931" lon="2.28834">
        <ele>149</ele>
        <time>2018-04-17T08:46:37Z</time>
      </trkpt>
      <trkpt lat="47.00939" lon="2.2886">
        <ele>149</ele>
        <time>2018-04-17T08:46:40Z</time>
      </trkpt>
      <trkpt lat="47.00945" lon="2.28885">
        <ele>149</ele>
        <time>2018-04-17T08:46:43Z</time>
      </trkpt>
      <trkpt lat="47.00957" lon="2.28923">
        <ele>148</ele>
        <time>2018-04-17T08:46:49Z</time>
      </trkpt>
      <trkpt lat="47.00972" lon="2.28973">
        <ele>148</ele>
        <time>2018-04-17T08:46:57Z</time>
      </trkpt>
      <trkpt lat="47.00975" lon="2.28986">
        <ele>148</ele>
        <time>2018-04-17T08:46:59Z</time>
      </trkpt>
      <trkpt lat="47.00977" lon="2.28993">
        <ele>148</ele>
        <time>2018-04-17T08:47:00Z</time>
      </trkpt>
      <trkpt lat="47.00985" lon="2.29017">
        <ele>149</ele>
        <time>2018-04-17T08:47:04Z</time>
      </trkpt>
      <trkpt lat="47.00987" lon="2.29024">
        <ele>149</ele>
        <time>2018-04-17T08:47:05Z</time>
      </trkpt>
      <trkpt lat="47.00989" lon="2.2903">
        <ele>149</ele>
        <time>2018-04-17T08:47:06Z</time>
      </trkpt>
      <trkpt lat="47.00998" lon="2.29063">
        <ele>150</ele>
        <time>2018-04-17T08:47:11Z</time>
      </trkpt>
      <trkpt lat="47.00999" lon="2.2907">
        <ele>150</ele>
        <time>2018-04-17T08:47:12Z</time>
      </trkpt>
      <trkpt lat="47.01004" lon="2.29088">
        <ele>152</ele>
        <time>2018-04-17T08:47:15Z</time>
      </trkpt>
      <trkpt lat="47.0101" lon="2.29107">
        <ele>154</ele>
        <time>2018-04-17T08:47:18Z</time>
      </trkpt>
      <trkpt lat="47.01015" lon="2.29126">
        <ele>155</ele>
        <time>2018-04-17T08:47:21Z</time>
      </trkpt>
      <trkpt lat="47.01022" lon="2.29157">
        <ele>155</ele>
        <time>2018-04-17T08:47:26Z</time>
      </trkpt>
      <trkpt lat="47.01031" lon="2.29191">
        <ele>157</ele>
        <time>2018-04-17T08:47:32Z</time>
      </trkpt>
      <trkpt lat="47.01033" lon="2.29196">
        <ele>157</ele>
        <time>2018-04-17T08:47:33Z</time>
      </trkpt>
      <trkpt lat="47.01045" lon="2.29223">
        <ele>157</ele>
        <time>2018-04-17T08:47:39Z</time>
      </trkpt>
      <trkpt lat="47.01052" lon="2.29249">
        <ele>157</ele>
        <time>2018-04-17T08:47:45Z</time>
      </trkpt>
      <trkpt lat="47.01059" lon="2.29276">
        <ele>158</ele>
        <time>2018-04-17T08:47:51Z</time>
      </trkpt>
      <trkpt lat="47.01066" lon="2.29298">
        <ele>158</ele>
        <time>2018-04-17T08:47:57Z</time>
      </trkpt>
      <trkpt lat="47.01067" lon="2.29302">
        <ele>158</ele>
        <time>2018-04-17T08:47:58Z</time>
      </trkpt>
      <trkpt lat="47.01068" lon="2.29317">
        <ele>158</ele>
        <time>2018-04-17T08:48:03Z</time>
      </trkpt>
      <trkpt lat="47.01069" lon="2.2932">
        <ele>158</ele>
        <time>2018-04-17T08:48:04Z</time>
      </trkpt>
      <trkpt lat="47.01073" lon="2.29335">
        <ele>159</ele>
        <time>2018-04-17T08:48:10Z</time>
      </trkpt>
      <trkpt lat="47.01074" lon="2.2934">
        <ele>159</ele>
        <time>2018-04-17T08:48:15Z</time>
      </trkpt>
      <trkpt lat="47.01074" lon="2.2934">
        <ele>159</ele>
        <time>2018-04-17T08:48:17Z</time>
      </trkpt>
      <trkpt lat="47.01075" lon="2.29343">
        <ele>159</ele>
        <time>2018-04-17T08:48:22Z</time>
      </trkpt>
      <trkpt lat="47.01077" lon="2.29344">
        <ele>159</ele>
        <time>2018-04-17T08:48:23Z</time>
      </trkpt>
      <trkpt lat="47.01082" lon="2.29342">
        <ele>159</ele>
        <time>2018-04-17T08:48:25Z</time>
      </trkpt>
      <trkpt lat="47.011" lon="2.2933">
        <ele>159</ele>
        <time>2018-04-17T08:48:31Z</time>
      </trkpt>
      <trkpt lat="47.0112" lon="2.29316">
        <ele>159</ele>
        <time>2018-04-17T08:48:37Z</time>
      </trkpt>
      <trkpt lat="47.01142" lon="2.29298">
        <ele>159</ele>
        <time>2018-04-17T08:48:43Z</time>
      </trkpt>
      <trkpt lat="47.01148" lon="2.29289">
        <ele>159</ele>
        <time>2018-04-17T08:48:45Z</time>
      </trkpt>
      <trkpt lat="47.01157" lon="2.29269">
        <ele>159</ele>
        <time>2018-04-17T08:48:49Z</time>
      </trkpt>
      <trkpt lat="47.0116" lon="2.29264">
        <ele>159</ele>
        <time>2018-04-17T08:48:50Z</time>
      </trkpt>
      <trkpt lat="47.01163" lon="2.29259">
        <ele>160</ele>
        <time>2018-04-17T08:48:51Z</time>
      </trkpt>
      <trkpt lat="47.0117" lon="2.29251">
        <ele>160</ele>
        <time>2018-04-17T08:48:53Z</time>
      </trkpt>
      <trkpt lat="47.01173" lon="2.29247">
        <ele>159</ele>
        <time>2018-04-17T08:48:54Z</time>
      </trkpt>
      <trkpt lat="47.01185" lon="2.29236">
        <ele>158</ele>
        <time>2018-04-17T08:48:57Z</time>
      </trkpt>
      <trkpt lat="47.0119" lon="2.29233">
        <ele>158</ele>
        <time>2018-04-17T08:48:58Z</time>
      </trkpt>
      <trkpt lat="47.01199" lon="2.29227">
        <ele>158</ele>
        <time>2018-04-17T08:49:00Z</time>
      </trkpt>
      <trkpt lat="47.01214" lon="2.29216">
        <ele>157</ele>
        <time>2018-04-17T08:49:03Z</time>
      </trkpt>
      <trkpt lat="47.01225" lon="2.29209">
        <ele>157</ele>
        <time>2018-04-17T08:49:05Z</time>
      </trkpt>
      <trkpt lat="47.01242" lon="2.29198">
        <ele>156</ele>
        <time>2018-04-17T08:49:08Z</time>
      </trkpt>
      <trkpt lat="47.01253" lon="2.29192">
        <ele>155</ele>
        <time>2018-04-17T08:49:10Z</time>
      </trkpt>
      <trkpt lat="47.01265" lon="2.2919">
        <ele>155</ele>
        <time>2018-04-17T08:49:13Z</time>
      </trkpt>
      <trkpt lat="47.01268" lon="2.29188">
        <ele>155</ele>
        <time>2018-04-17T08:49:14Z</time>
      </trkpt>
      <trkpt lat="47.01275" lon="2.29184">
        <ele>155</ele>
        <time>2018-04-17T08:49:17Z</time>
      </trkpt>
      <trkpt lat="47.01276" lon="2.29185">
        <ele>155</ele>
        <time>2018-04-17T08:49:18Z</time>
      </trkpt>
      <trkpt lat="47.01278" lon="2.2919">
        <ele>155</ele>
        <time>2018-04-17T08:49:21Z</time>
      </trkpt>
      <trkpt lat="47.01279" lon="2.29192">
        <ele>155</ele>
        <time>2018-04-17T08:49:22Z</time>
      </trkpt>
      <trkpt lat="47.0129" lon="2.29203">
        <ele>156</ele>
        <time>2018-04-17T08:49:28Z</time>
      </trkpt>
      <trkpt lat="47.01295" lon="2.29208">
        <ele>156</ele>
        <time>2018-04-17T08:49:31Z</time>
      </trkpt>
      <trkpt lat="47.013" lon="2.29213">
        <ele>156</ele>
        <time>2018-04-17T08:49:34Z</time>
      </trkpt>
      <trkpt lat="47.01314" lon="2.29224">
        <ele>156</ele>
        <time>2018-04-17T08:49:40Z</time>
      </trkpt>
      <trkpt lat="47.01324" lon="2.29231">
        <ele>157</ele>
        <time>2018-04-17T08:49:44Z</time>
      </trkpt>
      <trkpt lat="47.01326" lon="2.29233">
        <ele>157</ele>
        <time>2018-04-17T08:49:45Z</time>
      </trkpt>
      <trkpt lat="47.01339" lon="2.29244">
        <ele>158</ele>
        <time>2018-04-17T08:49:51Z</time>
      </trkpt>
      <trkpt lat="47.01351" lon="2.29263">
        <ele>158</ele>
        <time>2018-04-17T08:49:57Z</time>
      </trkpt>
      <trkpt lat="47.01365" lon="2.29273">
        <ele>158</ele>
        <time>2018-04-17T08:50:02Z</time>
      </trkpt>
      <trkpt lat="47.01388" lon="2.29287">
        <ele>158</ele>
        <time>2018-04-17T08:50:09Z</time>
      </trkpt>
      <trkpt lat="47.01413" lon="2.29301">
        <ele>158</ele>
        <time>2018-04-17T08:50:16Z</time>
      </trkpt>
      <trkpt lat="47.01433" lon="2.29315">
        <ele>158</ele>
        <time>2018-04-17T08:50:23Z</time>
      </trkpt>
      <trkpt lat="47.01462" lon="2.29332">
        <ele>158</ele>
        <time>2018-04-17T08:50:30Z</time>
      </trkpt>
      <trkpt lat="47.0148" lon="2.29342">
        <ele>158</ele>
        <time>2018-04-17T08:50:34Z</time>
      </trkpt>
      <trkpt lat="47.01488" lon="2.29346">
        <ele>158</ele>
        <time>2018-04-17T08:50:36Z</time>
      </trkpt>
      <trkpt lat="47.01506" lon="2.29357">
        <ele>157</ele>
        <time>2018-04-17T08:50:41Z</time>
      </trkpt>
      <trkpt lat="47.01516" lon="2.29361">
        <ele>156</ele>
        <time>2018-04-17T08:50:43Z</time>
      </trkpt>
      <trkpt lat="47.01528" lon="2.29369">
        <ele>156</ele>
        <time>2018-04-17T08:50:46Z</time>
      </trkpt>
      <trkpt lat="47.01539" lon="2.29378">
        <ele>156</ele>
        <time>2018-04-17T08:50:49Z</time>
      </trkpt>
      <trkpt lat="47.01561" lon="2.29397">
        <ele>155</ele>
        <time>2018-04-17T08:50:54Z</time>
      </trkpt>
      <trkpt lat="47.01566" lon="2.294">
        <ele>155</ele>
        <time>2018-04-17T08:50:55Z</time>
      </trkpt>
      <trkpt lat="47.01578" lon="2.29411">
        <ele>154</ele>
        <time>2018-04-17T08:50:59Z</time>
      </trkpt>
      <trkpt lat="47.01581" lon="2.29413">
        <ele>154</ele>
        <time>2018-04-17T08:51:00Z</time>
      </trkpt>
      <trkpt lat="47.01596" lon="2.29426">
        <ele>154</ele>
        <time>2018-04-17T08:51:05Z</time>
      </trkpt>
      <trkpt lat="47.0162" lon="2.29449">
        <ele>153</ele>
        <time>2018-04-17T08:51:13Z</time>
      </trkpt>
      <trkpt lat="47.0164" lon="2.2947">
        <ele>153</ele>
        <time>2018-04-17T08:51:20Z</time>
      </trkpt>
      <trkpt lat="47.01658" lon="2.29488">
        <ele>152</ele>
        <time>2018-04-17T08:51:26Z</time>
      </trkpt>
      <trkpt lat="47.01672" lon="2.29501">
        <ele>152</ele>
        <time>2018-04-17T08:51:30Z</time>
      </trkpt>
      <trkpt lat="47.01684" lon="2.29512">
        <ele>152</ele>
        <time>2018-04-17T08:51:33Z</time>
      </trkpt>
      <trkpt lat="47.01688" lon="2.29515">
        <ele>152</ele>
        <time>2018-04-17T08:51:34Z</time>
      </trkpt>
      <trkpt lat="47.01693" lon="2.29518">
        <ele>153</ele>
        <time>2018-04-17T08:51:35Z</time>
      </trkpt>
      <trkpt lat="47.01702" lon="2.29525">
        <ele>153</ele>
        <time>2018-04-17T08:51:37Z</time>
      </trkpt>
      <trkpt lat="47.01708" lon="2.29527">
        <ele>153</ele>
        <time>2018-04-17T08:51:38Z</time>
      </trkpt>
      <trkpt lat="47.01738" lon="2.29534">
        <ele>153</ele>
        <time>2018-04-17T08:51:44Z</time>
      </trkpt>
      <trkpt lat="47.01755" lon="2.29537">
        <ele>155</ele>
        <time>2018-04-17T08:51:48Z</time>
      </trkpt>
      <trkpt lat="47.01758" lon="2.29538">
        <ele>155</ele>
        <time>2018-04-17T08:51:49Z</time>
      </trkpt>
      <trkpt lat="47.01768" lon="2.2954">
        <ele>155</ele>
        <time>2018-04-17T08:51:52Z</time>
      </trkpt>
      <trkpt lat="47.01776" lon="2.29542">
        <ele>155</ele>
        <time>2018-04-17T08:51:55Z</time>
      </trkpt>
      <trkpt lat="47.01787" lon="2.29543">
        <ele>156</ele>
        <time>2018-04-17T08:51:59Z</time>
      </trkpt>
      <trkpt lat="47.01792" lon="2.29543">
        <ele>156</ele>
        <time>2018-04-17T08:52:01Z</time>
      </trkpt>
      <trkpt lat="47.01803" lon="2.29544">
        <ele>156</ele>
        <time>2018-04-17T08:52:05Z</time>
      </trkpt>
      <trkpt lat="47.01809" lon="2.29544">
        <ele>156</ele>
        <time>2018-04-17T08:52:07Z</time>
      </trkpt>
      <trkpt lat="47.01818" lon="2.29543">
        <ele>156</ele>
        <time>2018-04-17T08:52:10Z</time>
      </trkpt>
      <trkpt lat="47.01827" lon="2.29542">
        <ele>156</ele>
        <time>2018-04-17T08:52:13Z</time>
      </trkpt>
      <trkpt lat="47.01855" lon="2.29539">
        <ele>158</ele>
        <time>2018-04-17T08:52:22Z</time>
      </trkpt>
      <trkpt lat="47.01884" lon="2.29536">
        <ele>159</ele>
        <time>2018-04-17T08:52:30Z</time>
      </trkpt>
      <trkpt lat="47.0191" lon="2.29536">
        <ele>159</ele>
        <time>2018-04-17T08:52:36Z</time>
      </trkpt>
      <trkpt lat="47.01924" lon="2.29537">
        <ele>160</ele>
        <time>2018-04-17T08:52:39Z</time>
      </trkpt>
      <trkpt lat="47.01938" lon="2.29539">
        <ele>160</ele>
        <time>2018-04-17T08:52:42Z</time>
      </trkpt>
      <trkpt lat="47.01961" lon="2.29542">
        <ele>159</ele>
        <time>2018-04-17T08:52:47Z</time>
      </trkpt>
      <trkpt lat="47.0199" lon="2.29546">
        <ele>159</ele>
        <time>2018-04-17T08:52:53Z</time>
      </trkpt>
      <trkpt lat="47.01994" lon="2.29547">
        <ele>159</ele>
        <time>2018-04-17T08:52:54Z</time>
      </trkpt>
      <trkpt lat="47.02019" lon="2.29552">
        <ele>159</ele>
        <time>2018-04-17T08:52:59Z</time>
      </trkpt>
      <trkpt lat="47.0205" lon="2.29557">
        <ele>159</ele>
        <time>2018-04-17T08:53:06Z</time>
      </trkpt>
      <trkpt lat="47.02081" lon="2.29561">
        <ele>159</ele>
        <time>2018-04-17T08:53:13Z</time>
      </trkpt>
      <trkpt lat="47.02102" lon="2.29564">
        <ele>158</ele>
        <time>2018-04-17T08:53:18Z</time>
      </trkpt>
      <trkpt lat="47.02107" lon="2.29563">
        <ele>158</ele>
        <time>2018-04-17T08:53:19Z</time>
      </trkpt>
      <trkpt lat="47.0213" lon="2.29549">
        <ele>157</ele>
        <time>2018-04-17T08:53:24Z</time>
      </trkpt>
      <trkpt lat="47.02136" lon="2.29545">
        <ele>157</ele>
        <time>2018-04-17T08:53:25Z</time>
      </trkpt>
      <trkpt lat="47.02146" lon="2.29536">
        <ele>156</ele>
        <time>2018-04-17T08:53:27Z</time>
      </trkpt>
      <trkpt lat="47.02151" lon="2.29531">
        <ele>156</ele>
        <time>2018-04-17T08:53:28Z</time>
      </trkpt>
      <trkpt lat="47.02161" lon="2.29519">
        <ele>156</ele>
        <time>2018-04-17T08:53:30Z</time>
      </trkpt>
      <trkpt lat="47.02166" lon="2.29512">
        <ele>155</ele>
        <time>2018-04-17T08:53:31Z</time>
      </trkpt>
      <trkpt lat="47.02171" lon="2.29504">
        <ele>154</ele>
        <time>2018-04-17T08:53:32Z</time>
      </trkpt>
      <trkpt lat="47.02182" lon="2.29488">
        <ele>152</ele>
        <time>2018-04-17T08:53:34Z</time>
      </trkpt>
      <trkpt lat="47.02186" lon="2.29479">
        <ele>152</ele>
        <time>2018-04-17T08:53:35Z</time>
      </trkpt>
      <trkpt lat="47.02191" lon="2.29471">
        <ele>151</ele>
        <time>2018-04-17T08:53:36Z</time>
      </trkpt>
      <trkpt lat="47.02198" lon="2.29461">
        <ele>151</ele>
        <time>2018-04-17T08:53:38Z</time>
      </trkpt>
      <trkpt lat="47.02205" lon="2.29466">
        <ele>151</ele>
        <time>2018-04-17T08:53:41Z</time>
      </trkpt>
      <trkpt lat="47.02216" lon="2.29486">
        <ele>151</ele>
        <time>2018-04-17T08:53:46Z</time>
      </trkpt>
      <trkpt lat="47.02221" lon="2.29492">
        <ele>151</ele>
        <time>2018-04-17T08:53:48Z</time>
      </trkpt>
      <trkpt lat="47.02231" lon="2.2951">
        <ele>152</ele>
        <time>2018-04-17T08:53:53Z</time>
      </trkpt>
      <trkpt lat="47.02233" lon="2.29514">
        <ele>152</ele>
        <time>2018-04-17T08:53:54Z</time>
      </trkpt>
      <trkpt lat="47.02245" lon="2.29547">
        <ele>152</ele>
        <time>2018-04-17T08:54:02Z</time>
      </trkpt>
      <trkpt lat="47.02246" lon="2.29552">
        <ele>152</ele>
        <time>2018-04-17T08:54:03Z</time>
      </trkpt>
      <trkpt lat="47.02248" lon="2.29584">
        <ele>152</ele>
        <time>2018-04-17T08:54:10Z</time>
      </trkpt>
      <trkpt lat="47.02247" lon="2.29619">
        <ele>153</ele>
        <time>2018-04-17T08:54:17Z</time>
      </trkpt>
      <trkpt lat="47.02237" lon="2.2964">
        <ele>153</ele>
        <time>2018-04-17T08:54:22Z</time>
      </trkpt>
      <trkpt lat="47.02224" lon="2.29649">
        <ele>154</ele>
        <time>2018-04-17T08:54:26Z</time>
      </trkpt>
      <trkpt lat="47.02221" lon="2.2965">
        <ele>154</ele>
        <time>2018-04-17T08:54:27Z</time>
      </trkpt>
      <trkpt lat="47.02198" lon="2.29663">
        <ele>154</ele>
        <time>2018-04-17T08:54:34Z</time>
      </trkpt>
      <trkpt lat="47.02192" lon="2.29668">
        <ele>155</ele>
        <time>2018-04-17T08:54:36Z</time>
      </trkpt>
      <trkpt lat="47.02166" lon="2.29694">
        <ele>157</ele>
        <time>2018-04-17T08:54:45Z</time>
      </trkpt>
      <trkpt lat="47.02158" lon="2.29704">
        <ele>157</ele>
        <time>2018-04-17T08:54:48Z</time>
      </trkpt>
      <trkpt lat="47.02139" lon="2.29728">
        <ele>157</ele>
        <time>2018-04-17T08:54:55Z</time>
      </trkpt>
      <trkpt lat="47.02134" lon="2.29734">
        <ele>157</ele>
        <time>2018-04-17T08:54:57Z</time>
      </trkpt>
      <trkpt lat="47.0212" lon="2.29751">
        <ele>156</ele>
        <time>2018-04-17T08:55:02Z</time>
      </trkpt>
      <trkpt lat="47.02109" lon="2.29771">
        <ele>156</ele>
        <time>2018-04-17T08:55:07Z</time>
      </trkpt>
      <trkpt lat="47.02096" lon="2.2979">
        <ele>156</ele>
        <time>2018-04-17T08:55:12Z</time>
      </trkpt>
      <trkpt lat="47.02082" lon="2.29813">
        <ele>156</ele>
        <time>2018-04-17T08:55:18Z</time>
      </trkpt>
      <trkpt lat="47.02074" lon="2.29825">
        <ele>156</ele>
        <time>2018-04-17T08:55:21Z</time>
      </trkpt>
      <trkpt lat="47.02061" lon="2.29846">
        <ele>156</ele>
        <time>2018-04-17T08:55:28Z</time>
      </trkpt>
      <trkpt lat="47.02053" lon="2.29858">
        <ele>156</ele>
        <time>2018-04-17T08:55:35Z</time>
      </trkpt>
      <trkpt lat="47.02051" lon="2.29863">
        <ele>156</ele>
        <time>2018-04-17T08:55:41Z</time>
      </trkpt>
      <trkpt lat="47.02051" lon="2.29865">
        <ele>156</ele>
        <time>2018-04-17T08:55:47Z</time>
      </trkpt>
      <trkpt lat="47.0205" lon="2.29865">
        <ele>156</ele>
        <time>2018-04-17T08:56:02Z</time>
      </trkpt>
      <trkpt lat="47.02043" lon="2.29875">
        <ele>156</ele>
        <time>2018-04-17T08:56:06Z</time>
      </trkpt>
      <trkpt lat="47.02035" lon="2.29883">
        <ele>156</ele>
        <time>2018-04-17T08:56:10Z</time>
      </trkpt>
      <trkpt lat="47.02033" lon="2.29889">
        <ele>156</ele>
        <time>2018-04-17T08:56:12Z</time>
      </trkpt>
      <trkpt lat="47.02033" lon="2.2989">
        <ele>156</ele>
        <time>2018-04-17T08:56:14Z</time>
      </trkpt>
      <trkpt lat="47.02033" lon="2.2989">
        <ele>156</ele>
        <time>2018-04-17T08:56:30Z</time>
      </trkpt>
    </trkseg>
  </trk>
</gpx>